Dades meteomassalio
Diari Summary for Gener 3, 2018 Units:  Both    English   Metric
« Previous Day
Next Day »
Diari Semanal Mensual Anual Personalitzat
  Maxima: Minima: Mijana:
Temperatura: TemperatureC °F /  -17.8 °C 8.9 °F /  -12.8 °C 14.2 °F /  -9.9 °C
Rosada: DewpointC °F /  -17.8 °C 3.5 °F /  -15.8 °C 8 °F /  -13.3 °C
Humitat: Humidity % 54 % 66 %
Velocitat del vent: WindSpeedKMH mph /  0 km/h - 24.4 mph /  39.3 km/h
Racha vent: WindSpeedGustKMH mph /  0 km/h - -
Vent:- - WNW
Pressio: PressurehPa in /  0 hPa 1027.0 in /  34774.2 hPa -
Pluja: 0.0 in /  0 mm    
Historical Graphs
 
 
Tabular Data for Gener 3, 2018
Time Temperature Dew Point Pressure Wind Wind Speed Wind Gust Humidity Rainfall Rate (Hourly) solar Conditions
TemperatureC °F /  -17.8 °C DewpointC °F /  -17.8 °C PressurehPa in /  0 hPa Calm     Humidity % HourlyPrecipMM in /  0 mm SolarRadiationWatts/m^2 W/m2 Conditions
00:03 12.2 °F /  -11 °C 7.1 °F /  -13.8 °C 1030.4 in /  34889.3 hPa West 7.4 mph /  11.9 km/h 7.4 mph /  11.9 km/h 71 % 0.0 in /  0 mm 0.0 W/m2 CLR
00:04 12.2 °F /  -11 °C 7.1 °F /  -13.8 °C 1030.4 in /  34889.3 hPa West 3.7 mph /  6 km/h 3.7 mph /  6 km/h 71 % 0.0 in /  0 mm 0.0 W/m2 CLR
00:09 11.7 °F /  -11.3 °C 7.0 °F /  -13.9 °C 1030.0 in /  34875.8 hPa WNW 20.4 mph /  32.8 km/h 20.4 mph /  32.8 km/h 73 % 0.0 in /  0 mm 0.0 W/m2 CLR
00:14 11.7 °F /  -11.3 °C 7.0 °F /  -13.9 °C 1030.0 in /  34875.8 hPa West 19.3 mph /  31.1 km/h 19.3 mph /  31.1 km/h 73 % 0.0 in /  0 mm 0.0 W/m2 CLR
00:19 11.7 °F /  -11.3 °C 7.0 °F /  -13.9 °C 1030.0 in /  34875.8 hPa WNW 17.7 mph /  28.5 km/h 17.7 mph /  28.5 km/h 73 % 0.0 in /  0 mm 0.0 W/m2 CLR
00:20 11.7 °F /  -11.3 °C 7.0 °F /  -13.9 °C 1030.0 in /  34875.8 hPa WNW 18.5 mph /  29.8 km/h 18.5 mph /  29.8 km/h 73 % 0.0 in /  0 mm 0.0 W/m2 CLR
00:23 11.7 °F /  -11.3 °C 6.8 °F /  -14 °C 1030.0 in /  34875.8 hPa WNW 22.2 mph /  35.7 km/h 22.2 mph /  35.7 km/h 72 % 0.0 in /  0 mm 0.0 W/m2 CLR
00:28 11.7 °F /  -11.3 °C 6.8 °F /  -14 °C 1030.0 in /  34875.8 hPa WNW 18.5 mph /  29.8 km/h 18.5 mph /  29.8 km/h 72 % 0.0 in /  0 mm 0.0 W/m2 CLR
00:30 11.7 °F /  -11.3 °C 6.8 °F /  -14 °C 1030.0 in /  34875.8 hPa West 29.6 mph /  47.6 km/h 29.6 mph /  47.6 km/h 72 % 0.0 in /  0 mm 0.0 W/m2 CLR
00:32 11.7 °F /  -11.3 °C 6.6 °F /  -14.1 °C 1030.0 in /  34875.8 hPa WNW 22.2 mph /  35.7 km/h 22.2 mph /  35.7 km/h 71 % 0.0 in /  0 mm 0.0 W/m2 CLR
00:36 12.2 °F /  -11 °C 7.1 °F /  -13.8 °C 1030.0 in /  34875.8 hPa NW 27.8 mph /  44.7 km/h 27.8 mph /  44.7 km/h 71 % 0.0 in /  0 mm 0.0 W/m2 CLR
00:41 12.2 °F /  -11 °C 7.1 °F /  -13.8 °C 1030.0 in /  34875.8 hPa WNW 22.5 mph /  36.2 km/h 22.8 mph /  36.7 km/h 71 % 0.0 in /  0 mm 0.0 W/m2 CLR
00:46 12.8 °F /  -10.7 °C 7.4 °F /  -13.7 °C 1030.0 in /  34875.8 hPa NW 27.8 mph /  44.7 km/h 27.8 mph /  44.7 km/h 70 % 0.0 in /  0 mm 0.0 W/m2 CLR
00:50 12.8 °F /  -10.7 °C 7.4 °F /  -13.7 °C 1030.0 in /  34875.8 hPa WNW 22.2 mph /  35.7 km/h 22.2 mph /  35.7 km/h 70 % 0.0 in /  0 mm 0.0 W/m2 CLR
00:55 12.8 °F /  -10.7 °C 7.2 °F /  -13.8 °C 1030.0 in /  34875.8 hPa NW 27.8 mph /  44.7 km/h 27.8 mph /  44.7 km/h 69 % 0.0 in /  0 mm 0.0 W/m2 CLR
01:00 12.2 °F /  -11 °C 6.7 °F /  -14.1 °C 1029.7 in /  34865.6 hPa WNW 31.5 mph /  50.7 km/h 31.5 mph /  50.7 km/h 69 % 0.0 in /  0 mm 0.0 W/m2 CLR
01:01 12.2 °F /  -11 °C 6.7 °F /  -14.1 °C 1029.7 in /  34865.6 hPa WNW 31.5 mph /  50.7 km/h 31.5 mph /  50.7 km/h 69 % 0.0 in /  0 mm 0.0 W/m2 CLR
01:06 12.2 °F /  -11 °C 6.7 °F /  -14.1 °C 1029.7 in /  34865.6 hPa NW 31.5 mph /  50.7 km/h 31.5 mph /  50.7 km/h 69 % 0.0 in /  0 mm 0.0 W/m2 CLR
01:07 12.2 °F /  -11 °C 6.5 °F /  -14.2 °C 1030.0 in /  34875.8 hPa WNW 27.4 mph /  44.1 km/h 27.4 mph /  44.1 km/h 68 % 0.0 in /  0 mm 0.0 W/m2 CLR
01:12 12.8 °F /  -10.7 °C 7.0 °F /  -13.9 °C 1030.0 in /  34875.8 hPa WNW 27.8 mph /  44.7 km/h 27.8 mph /  44.7 km/h 68 % 0.0 in /  0 mm 0.0 W/m2 CLR
01:17 12.8 °F /  -10.7 °C 7.0 °F /  -13.9 °C 1029.7 in /  34865.6 hPa NW 25.9 mph /  41.7 km/h 25.9 mph /  41.7 km/h 68 % 0.0 in /  0 mm 0.0 W/m2 CLR
01:18 12.8 °F /  -10.7 °C 7.0 °F /  -13.9 °C 1029.7 in /  34865.6 hPa WNW 29.6 mph /  47.6 km/h 29.6 mph /  47.6 km/h 68 % 0.0 in /  0 mm 0.0 W/m2 CLR
01:19 12.8 °F /  -10.7 °C 7.0 °F /  -13.9 °C 1030.0 in /  34875.8 hPa NW 29.6 mph /  47.6 km/h 29.6 mph /  47.6 km/h 68 % 0.0 in /  0 mm 0.0 W/m2 CLR
01:24 12.8 °F /  -10.7 °C 7.0 °F /  -13.9 °C 1029.7 in /  34865.6 hPa WNW 27.8 mph /  44.7 km/h 27.8 mph /  44.7 km/h 68 % 0.0 in /  0 mm 0.0 W/m2 CLR
01:28 12.8 °F /  -10.7 °C 7.0 °F /  -13.9 °C 1030.0 in /  34875.8 hPa NW 27.8 mph /  44.7 km/h 27.8 mph /  44.7 km/h 68 % 0.0 in /  0 mm 0.0 W/m2 CLR
01:30 13.3 °F /  -10.4 °C 7.6 °F /  -13.6 °C 1030.0 in /  34875.8 hPa WNW 27.8 mph /  44.7 km/h 27.8 mph /  44.7 km/h 68 % 0.0 in /  0 mm 0.0 W/m2 CLR
01:35 13.3 °F /  -10.4 °C 7.6 °F /  -13.6 °C 1029.7 in /  34865.6 hPa WNW 27.8 mph /  44.7 km/h 27.8 mph /  44.7 km/h 68 % 0.0 in /  0 mm 0.0 W/m2 CLR
01:37 13.3 °F /  -10.4 °C 7.6 °F /  -13.6 °C 1029.7 in /  34865.6 hPa NW 24.1 mph /  38.8 km/h 24.1 mph /  38.8 km/h 68 % 0.0 in /  0 mm 0.0 W/m2 CLR
01:40 12.8 °F /  -10.7 °C 7.0 °F /  -13.9 °C 1029.7 in /  34865.6 hPa West 24.1 mph /  38.8 km/h 24.1 mph /  38.8 km/h 68 % 0.0 in /  0 mm 0.0 W/m2 CLR
01:45 12.8 °F /  -10.7 °C 7.0 °F /  -13.9 °C 1029.7 in /  34865.6 hPa WNW 24.1 mph /  38.8 km/h 24.1 mph /  38.8 km/h 68 % 0.0 in /  0 mm 0.0 W/m2 CLR
01:48 12.8 °F /  -10.7 °C 7.2 °F /  -13.8 °C 1029.7 in /  34865.6 hPa WNW 24.1 mph /  38.8 km/h 24.1 mph /  38.8 km/h 69 % 0.0 in /  0 mm 0.0 W/m2 CLR
01:53 12.2 °F /  -11 °C 6.5 °F /  -14.2 °C 1029.7 in /  34865.6 hPa WNW 22.2 mph /  35.7 km/h 22.2 mph /  35.7 km/h 68 % 0.0 in /  0 mm 0.0 W/m2 CLR
01:55 12.2 °F /  -11 °C 6.5 °F /  -14.2 °C 1029.7 in /  34865.6 hPa WNW 20.4 mph /  32.8 km/h 20.4 mph /  32.8 km/h 68 % 0.0 in /  0 mm 0.0 W/m2 CLR
02:00 12.2 °F /  -11 °C 6.5 °F /  -14.2 °C 1029.7 in /  34865.6 hPa WNW 16.7 mph /  26.9 km/h 16.7 mph /  26.9 km/h 68 % 0.0 in /  0 mm 0.0 W/m2 CLR
02:01 12.2 °F /  -11 °C 6.5 °F /  -14.2 °C 1029.7 in /  34865.6 hPa WNW 19.3 mph /  31.1 km/h 19.3 mph /  31.1 km/h 68 % 0.0 in /  0 mm 0.0 W/m2 CLR
02:06 12.2 °F /  -11 °C 6.7 °F /  -14.1 °C 1029.7 in /  34865.6 hPa WNW 18.5 mph /  29.8 km/h 18.5 mph /  29.8 km/h 69 % 0.0 in /  0 mm 0.0 W/m2 CLR
02:09 12.2 °F /  -11 °C 6.7 °F /  -14.1 °C 1029.7 in /  34865.6 hPa WNW 22.2 mph /  35.7 km/h 22.2 mph /  35.7 km/h 69 % 0.0 in /  0 mm 0.0 W/m2 CLR
02:12 12.2 °F /  -11 °C 6.7 °F /  -14.1 °C 1029.7 in /  34865.6 hPa WNW 20.4 mph /  32.8 km/h 20.4 mph /  32.8 km/h 69 % 0.0 in /  0 mm 0.0 W/m2 CLR
02:14 12.2 °F /  -11 °C 6.7 °F /  -14.1 °C 1029.7 in /  34865.6 hPa WNW 22.2 mph /  35.7 km/h 22.2 mph /  35.7 km/h 69 % 0.0 in /  0 mm 0.0 W/m2 CLR
02:19 12.2 °F /  -11 °C 6.7 °F /  -14.1 °C 1029.7 in /  34865.6 hPa NW 20.9 mph /  33.6 km/h 20.9 mph /  33.6 km/h 69 % 0.0 in /  0 mm 0.0 W/m2 CLR
02:20 11.7 °F /  -11.3 °C 6.4 °F /  -14.2 °C 1029.7 in /  34865.6 hPa NW 22.2 mph /  35.7 km/h 22.2 mph /  35.7 km/h 70 % 0.0 in /  0 mm 0.0 W/m2 CLR
02:21 11.7 °F /  -11.3 °C 6.4 °F /  -14.2 °C 1029.7 in /  34865.6 hPa NW 24.1 mph /  38.8 km/h 24.1 mph /  38.8 km/h 70 % 0.0 in /  0 mm 0.0 W/m2 CLR
02:26 11.7 °F /  -11.3 °C 6.4 °F /  -14.2 °C 1029.7 in /  34865.6 hPa WNW 29.6 mph /  47.6 km/h 29.6 mph /  47.6 km/h 70 % 0.0 in /  0 mm 0.0 W/m2 CLR
02:27 11.7 °F /  -11.3 °C 6.4 °F /  -14.2 °C 1029.7 in /  34865.6 hPa NW 27.8 mph /  44.7 km/h 27.8 mph /  44.7 km/h 70 % 0.0 in /  0 mm 0.0 W/m2 CLR
02:28 11.7 °F /  -11.3 °C 6.4 °F /  -14.2 °C 1029.7 in /  34865.6 hPa WNW 29.6 mph /  47.6 km/h 29.6 mph /  47.6 km/h 70 % 0.0 in /  0 mm 0.0 W/m2 CLR
02:33 12.2 °F /  -11 °C 6.9 °F /  -13.9 °C 1029.7 in /  34865.6 hPa WNW 22.2 mph /  35.7 km/h 22.2 mph /  35.7 km/h 70 % 0.0 in /  0 mm 0.0 W/m2 CLR
02:38 12.8 °F /  -10.7 °C 7.4 °F /  -13.7 °C 1029.7 in /  34865.6 hPa WNW 25.7 mph /  41.4 km/h 25.7 mph /  41.4 km/h 70 % 0.0 in /  0 mm 0.0 W/m2 CLR
02:39 12.8 °F /  -10.7 °C 7.4 °F /  -13.7 °C 1029.7 in /  34865.6 hPa NW 22.2 mph /  35.7 km/h 22.2 mph /  35.7 km/h 70 % 0.0 in /  0 mm 0.0 W/m2 CLR
02:44 12.8 °F /  -10.7 °C 7.4 °F /  -13.7 °C 1029.3 in /  34852.1 hPa WNW 22.2 mph /  35.7 km/h 22.2 mph /  35.7 km/h 70 % 0.0 in /  0 mm 0.0 W/m2 CLR
02:48 12.8 °F /  -10.7 °C 7.4 °F /  -13.7 °C 1029.7 in /  34865.6 hPa WNW 25.9 mph /  41.7 km/h 25.9 mph /  41.7 km/h 70 % 0.0 in /  0 mm 0.0 W/m2 CLR
02:50 12.8 °F /  -10.7 °C 7.4 °F /  -13.7 °C 1029.7 in /  34865.6 hPa WNW 24.1 mph /  38.8 km/h 24.1 mph /  38.8 km/h 70 % 0.0 in /  0 mm 0.0 W/m2 CLR
02:54 12.2 °F /  -11 °C 6.9 °F /  -13.9 °C 1029.7 in /  34865.6 hPa WNW 27.8 mph /  44.7 km/h 27.8 mph /  44.7 km/h 70 % 0.0 in /  0 mm 0.0 W/m2 CLR
02:55 12.2 °F /  -11 °C 6.9 °F /  -13.9 °C 1029.7 in /  34865.6 hPa NW 31.5 mph /  50.7 km/h 31.5 mph /  50.7 km/h 70 % 0.0 in /  0 mm 0.0 W/m2 CLR
03:00 12.8 °F /  -10.7 °C 7.4 °F /  -13.7 °C 1029.7 in /  34865.6 hPa West 25.9 mph /  41.7 km/h 25.9 mph /  41.7 km/h 70 % 0.0 in /  0 mm 0.0 W/m2 CLR
03:03 12.8 °F /  -10.7 °C 7.4 °F /  -13.7 °C 1029.7 in /  34865.6 hPa West 29.6 mph /  47.6 km/h 29.6 mph /  47.6 km/h 70 % 0.0 in /  0 mm 0.0 W/m2 CLR
03:08 12.8 °F /  -10.7 °C 7.4 °F /  -13.7 °C 1029.7 in /  34865.6 hPa NW 22.5 mph /  36.2 km/h 22.5 mph /  36.2 km/h 70 % 0.0 in /  0 mm 0.0 W/m2 CLR
03:13 12.8 °F /  -10.7 °C 7.4 °F /  -13.7 °C 1029.7 in /  34865.6 hPa NW 22.5 mph /  36.2 km/h 22.5 mph /  36.2 km/h 70 % 0.0 in /  0 mm 0.0 W/m2 CLR
03:15 12.8 °F /  -10.7 °C 7.4 °F /  -13.7 °C 1029.7 in /  34865.6 hPa NW 24.1 mph /  38.8 km/h 24.1 mph /  38.8 km/h 70 % 0.0 in /  0 mm 0.0 W/m2 CLR
03:16 12.8 °F /  -10.7 °C 7.4 °F /  -13.7 °C 1029.7 in /  34865.6 hPa West 25.9 mph /  41.7 km/h 25.9 mph /  41.7 km/h 70 % 0.0 in /  0 mm 0.0 W/m2 CLR
03:20 12.8 °F /  -10.7 °C 7.4 °F /  -13.7 °C 1029.7 in /  34865.6 hPa WNW 25.9 mph /  41.7 km/h 25.9 mph /  41.7 km/h 70 % 0.0 in /  0 mm 0.0 W/m2 CLR
03:23 12.8 °F /  -10.7 °C 7.4 °F /  -13.7 °C 1029.7 in /  34865.6 hPa NW 18.5 mph /  29.8 km/h 18.5 mph /  29.8 km/h 70 % 0.0 in /  0 mm 0.0 W/m2 CLR
03:25 12.8 °F /  -10.7 °C 7.4 °F /  -13.7 °C 1029.7 in /  34865.6 hPa NW 20.4 mph /  32.8 km/h 20.4 mph /  32.8 km/h 70 % 0.0 in /  0 mm 0.0 W/m2 CLR
03:30 12.8 °F /  -10.7 °C 7.4 °F /  -13.7 °C 1029.7 in /  34865.6 hPa WNW 20.4 mph /  32.8 km/h 20.4 mph /  32.8 km/h 70 % 0.0 in /  0 mm 0.0 W/m2 CLR
03:31 12.8 °F /  -10.7 °C 7.7 °F /  -13.5 °C 1029.7 in /  34865.6 hPa WNW 20.4 mph /  32.8 km/h 20.4 mph /  32.8 km/h 71 % 0.0 in /  0 mm 0.0 W/m2 CLR
03:36 12.2 °F /  -11 °C 7.1 °F /  -13.8 °C 1029.7 in /  34865.6 hPa NW 20.4 mph /  32.8 km/h 20.4 mph /  32.8 km/h 71 % 0.0 in /  0 mm 0.0 W/m2 CLR
03:37 12.2 °F /  -11 °C 7.1 °F /  -13.8 °C 1029.7 in /  34865.6 hPa NW 18.5 mph /  29.8 km/h 18.5 mph /  29.8 km/h 71 % 0.0 in /  0 mm 0.0 W/m2 CLR
03:42 11.7 °F /  -11.3 °C 6.6 °F /  -14.1 °C 1029.7 in /  34865.6 hPa WNW 14.8 mph /  23.8 km/h 14.8 mph /  23.8 km/h 71 % 0.0 in /  0 mm 0.0 W/m2 CLR
03:44 11.7 °F /  -11.3 °C 6.6 °F /  -14.1 °C 1029.7 in /  34865.6 hPa NW 16.7 mph /  26.9 km/h 16.7 mph /  26.9 km/h 71 % 0.0 in /  0 mm 0.0 W/m2 CLR
03:48 11.7 °F /  -11.3 °C 6.8 °F /  -14 °C 1029.7 in /  34865.6 hPa WNW 16.7 mph /  26.9 km/h 16.7 mph /  26.9 km/h 72 % 0.0 in /  0 mm 0.0 W/m2 CLR
03:53 11.1 °F /  -11.6 °C 6.3 °F /  -14.3 °C 1029.7 in /  34865.6 hPa WNW 13.0 mph /  20.9 km/h 13.0 mph /  20.9 km/h 72 % 0.0 in /  0 mm 0.0 W/m2 CLR
03:54 11.1 °F /  -11.6 °C 6.3 °F /  -14.3 °C 1029.7 in /  34865.6 hPa WNW 13.0 mph /  20.9 km/h 13.0 mph /  20.9 km/h 72 % 0.0 in /  0 mm 0.0 W/m2 CLR
03:59 11.1 °F /  -11.6 °C 6.3 °F /  -14.3 °C 1029.7 in /  34865.6 hPa Calm     72 % 0.0 in /  0 mm 0.0 W/m2 CLR
04:01 11.1 °F /  -11.6 °C 6.3 °F /  -14.3 °C 1029.7 in /  34865.6 hPa WNW 9.3 mph /  15 km/h 9.3 mph /  15 km/h 72 % 0.0 in /  0 mm 0.0 W/m2 CLR
04:02 11.1 °F /  -11.6 °C 6.4 °F /  -14.2 °C 1029.7 in /  34865.6 hPa Calm     73 % 0.0 in /  0 mm 0.0 W/m2 CLR
04:08 10.6 °F /  -11.9 °C 5.9 °F /  -14.5 °C 1029.7 in /  34865.6 hPa West 1.9 mph /  3.1 km/h 1.9 mph /  3.1 km/h 73 % 0.0 in /  0 mm 0.0 W/m2 CLR
04:13 10.0 °F /  -12.2 °C 5.6 °F /  -14.7 °C 1030.0 in /  34875.8 hPa Calm     74 % 0.0 in /  0 mm 0.0 W/m2 CLR
04:14 9.4 °F /  -12.6 °C 5.1 °F /  -14.9 °C 1030.0 in /  34875.8 hPa WNW 3.7 mph /  6 km/h 3.7 mph /  6 km/h 74 % 0.0 in /  0 mm 0.0 W/m2 CLR
04:19 8.9 °F /  -12.8 °C 4.5 °F /  -15.3 °C 1030.0 in /  34875.8 hPa West 5.6 mph /  9 km/h 5.6 mph /  9 km/h 74 % 0.0 in /  0 mm 0.0 W/m2 CLR
04:24 8.9 °F /  -12.8 °C 4.7 °F /  -15.2 °C 1030.0 in /  34875.8 hPa WNW 5.6 mph /  9 km/h 5.6 mph /  9 km/h 75 % 0.0 in /  0 mm 0.0 W/m2 CLR
04:30 8.9 °F /  -12.8 °C 4.7 °F /  -15.2 °C 1029.7 in /  34865.6 hPa West 9.3 mph /  15 km/h 9.3 mph /  15 km/h 75 % 0.0 in /  0 mm 0.0 W/m2 CLR
04:35 8.9 °F /  -12.8 °C 4.9 °F /  -15.1 °C 1029.7 in /  34865.6 hPa WNW 11.1 mph /  17.9 km/h 11.1 mph /  17.9 km/h 76 % 0.0 in /  0 mm 0.0 W/m2 CLR
04:36 9.4 °F /  -12.6 °C 5.4 °F /  -14.8 °C 1029.7 in /  34865.6 hPa West 8.0 mph /  12.9 km/h 8.0 mph /  12.9 km/h 76 % 0.0 in /  0 mm 0.0 W/m2 CLR
04:41 10.0 °F /  -12.2 °C 5.9 °F /  -14.5 °C 1029.7 in /  34865.6 hPa WNW 14.8 mph /  23.8 km/h 14.8 mph /  23.8 km/h 76 % 0.0 in /  0 mm 0.0 W/m2 CLR
04:46 10.0 °F /  -12.2 °C 6.2 °F /  -14.3 °C 1029.3 in /  34852.1 hPa WNW 16.7 mph /  26.9 km/h 16.7 mph /  26.9 km/h 77 % 0.0 in /  0 mm 0.0 W/m2 CLR
04:47 9.4 °F /  -12.6 °C 5.6 °F /  -14.7 °C 1029.3 in /  34852.1 hPa WNW 16.7 mph /  26.9 km/h 16.7 mph /  26.9 km/h 77 % 0.0 in /  0 mm 0.0 W/m2 CLR
04:48 9.4 °F /  -12.6 °C 5.6 °F /  -14.7 °C 1029.3 in /  34852.1 hPa WNW 18.5 mph /  29.8 km/h 18.5 mph /  29.8 km/h 77 % 0.0 in /  0 mm 0.0 W/m2 CLR
04:53 9.4 °F /  -12.6 °C 5.4 °F /  -14.8 °C 1029.3 in /  34852.1 hPa WNW 18.5 mph /  29.8 km/h 18.5 mph /  29.8 km/h 76 % 0.0 in /  0 mm 0.0 W/m2 CLR
04:57 9.4 °F /  -12.6 °C 5.4 °F /  -14.8 °C 1029.3 in /  34852.1 hPa NW 18.5 mph /  29.8 km/h 18.5 mph /  29.8 km/h 76 % 0.0 in /  0 mm 0.0 W/m2 CLR
04:59 9.4 °F /  -12.6 °C 5.4 °F /  -14.8 °C 1029.3 in /  34852.1 hPa WNW 14.8 mph /  23.8 km/h 14.8 mph /  23.8 km/h 76 % 0.0 in /  0 mm 0.0 W/m2 CLR
05:04 9.4 °F /  -12.6 °C 5.2 °F /  -14.9 °C 1029.3 in /  34852.1 hPa NW 16.7 mph /  26.9 km/h 16.7 mph /  26.9 km/h 75 % 0.0 in /  0 mm 0.0 W/m2 CLR
05:09 9.4 °F /  -12.6 °C 5.2 °F /  -14.9 °C 1029.3 in /  34852.1 hPa WNW 14.8 mph /  23.8 km/h 14.8 mph /  23.8 km/h 75 % 0.0 in /  0 mm 0.0 W/m2 CLR
05:10 9.4 °F /  -12.6 °C 5.2 °F /  -14.9 °C 1029.3 in /  34852.1 hPa West 14.8 mph /  23.8 km/h 14.8 mph /  23.8 km/h 75 % 0.0 in /  0 mm 0.0 W/m2 CLR
05:12 9.4 °F /  -12.6 °C 5.2 °F /  -14.9 °C 1029.3 in /  34852.1 hPa WNW 20.4 mph /  32.8 km/h 20.4 mph /  32.8 km/h 75 % 0.0 in /  0 mm 0.0 W/m2 CLR
05:16 9.4 °F /  -12.6 °C 5.2 °F /  -14.9 °C 1029.3 in /  34852.1 hPa West 13.0 mph /  20.9 km/h 13.0 mph /  20.9 km/h 75 % 0.0 in /  0 mm 0.0 W/m2 CLR
05:21 9.4 °F /  -12.6 °C 5.2 °F /  -14.9 °C 1029.3 in /  34852.1 hPa West 18.5 mph /  29.8 km/h 18.5 mph /  29.8 km/h 75 % 0.0 in /  0 mm 0.0 W/m2 CLR
05:22 9.4 °F /  -12.6 °C 5.2 °F /  -14.9 °C 1029.3 in /  34852.1 hPa WNW 16.7 mph /  26.9 km/h 16.7 mph /  26.9 km/h 75 % 0.0 in /  0 mm 0.0 W/m2 CLR
05:27 9.4 °F /  -12.6 °C 5.2 °F /  -14.9 °C 1029.7 in /  34865.6 hPa NW 11.1 mph /  17.9 km/h 11.1 mph /  17.9 km/h 75 % 0.0 in /  0 mm 0.0 W/m2 CLR
05:29 8.9 °F /  -12.8 °C 4.7 °F /  -15.2 °C 1029.7 in /  34865.6 hPa NNW 11.1 mph /  17.9 km/h   75 % 0.0 in /  0 mm 0.0 W/m2 CLR
05:30 8.9 °F /  -12.8 °C 4.7 °F /  -15.2 °C 1029.7 in /  34865.6 hPa Calm     75 % 0.0 in /  0 mm 0.0 W/m2 CLR
05:35 8.9 °F /  -12.8 °C 4.7 °F /  -15.2 °C 1029.3 in /  34852.1 hPa Calm     75 % 0.0 in /  0 mm 0.0 W/m2 CLR
05:36 8.9 °F /  -12.8 °C 4.7 °F /  -15.2 °C 1029.3 in /  34852.1 hPa Calm     75 % 0.0 in /  0 mm 0.0 W/m2 CLR
05:40 8.9 °F /  -12.8 °C 4.9 °F /  -15.1 °C 1029.3 in /  34852.1 hPa WNW 11.3 mph /  18.2 km/h 11.3 mph /  18.2 km/h 76 % 0.0 in /  0 mm 0.0 W/m2 CLR
05:41 8.9 °F /  -12.8 °C 4.9 °F /  -15.1 °C 1029.3 in /  34852.1 hPa WNW 16.7 mph /  26.9 km/h 16.7 mph /  26.9 km/h 76 % 0.0 in /  0 mm 0.0 W/m2 CLR
05:46 8.9 °F /  -12.8 °C 4.9 °F /  -15.1 °C 1029.3 in /  34852.1 hPa WNW 18.5 mph /  29.8 km/h 18.5 mph /  29.8 km/h 76 % 0.0 in /  0 mm 0.0 W/m2 CLR
05:47 8.9 °F /  -12.8 °C 4.9 °F /  -15.1 °C 1029.3 in /  34852.1 hPa WNW 18.5 mph /  29.8 km/h 18.5 mph /  29.8 km/h 76 % 0.0 in /  0 mm 0.0 W/m2 CLR
05:52 8.9 °F /  -12.8 °C 4.7 °F /  -15.2 °C 1029.3 in /  34852.1 hPa NW 18.5 mph /  29.8 km/h 18.5 mph /  29.8 km/h 75 % 0.0 in /  0 mm 0.0 W/m2 CLR
05:57 9.4 °F /  -12.6 °C 5.2 °F /  -14.9 °C 1029.0 in /  34841.9 hPa NW 18.5 mph /  29.8 km/h 18.5 mph /  29.8 km/h 75 % 0.0 in /  0 mm 0.0 W/m2 CLR
06:01 10.0 °F /  -12.2 °C 5.8 °F /  -14.6 °C 1029.3 in /  34852.1 hPa NW 24.1 mph /  38.8 km/h 24.1 mph /  38.8 km/h 75 % 0.0 in /  0 mm 0.0 W/m2 CLR
06:03 10.6 °F /  -11.9 °C 6.1 °F /  -14.4 °C 1029.3 in /  34852.1 hPa NW 24.1 mph /  38.8 km/h 24.1 mph /  38.8 km/h 74 % 0.0 in /  0 mm 0.0 W/m2 CLR
06:08 11.1 °F /  -11.6 °C 6.8 °F /  -14 °C 1029.3 in /  34852.1 hPa NW 24.1 mph /  38.8 km/h 24.1 mph /  38.8 km/h 75 % 0.0 in /  0 mm 0.0 W/m2 CLR
06:13 12.2 °F /  -11 °C 7.9 °F /  -13.4 °C 1029.7 in /  34865.6 hPa NNW 24.1 mph /  38.8 km/h 24.1 mph /  38.8 km/h 75 % 0.0 in /  0 mm 0.0 W/m2 CLR
06:15 12.2 °F /  -11 °C 7.7 °F /  -13.5 °C 1029.7 in /  34865.6 hPa NNW 22.5 mph /  36.2 km/h 22.5 mph /  36.2 km/h 74 % 0.0 in /  0 mm 0.0 W/m2 CLR
06:18 12.2 °F /  -11 °C 7.7 °F /  -13.5 °C 1029.7 in /  34865.6 hPa NNW 18.5 mph /  29.8 km/h 18.5 mph /  29.8 km/h 74 % 0.0 in /  0 mm 0.0 W/m2 CLR
06:21 12.2 °F /  -11 °C 7.7 °F /  -13.5 °C 1029.7 in /  34865.6 hPa NW 16.7 mph /  26.9 km/h 16.7 mph /  26.9 km/h 74 % 0.0 in /  0 mm 0.0 W/m2 CLR
06:23 12.2 °F /  -11 °C 7.7 °F /  -13.5 °C 1029.7 in /  34865.6 hPa NW 18.5 mph /  29.8 km/h 18.5 mph /  29.8 km/h 74 % 0.0 in /  0 mm 0.0 W/m2 CLR
06:27 12.2 °F /  -11 °C 7.9 °F /  -13.4 °C 1029.7 in /  34865.6 hPa NW 18.5 mph /  29.8 km/h 18.5 mph /  29.8 km/h 75 % 0.0 in /  0 mm 0.0 W/m2 CLR
06:32 12.2 °F /  -11 °C 7.7 °F /  -13.5 °C 1029.7 in /  34865.6 hPa WNW 18.5 mph /  29.8 km/h 18.5 mph /  29.8 km/h 74 % 0.0 in /  0 mm 0.0 W/m2 CLR
06:34 12.2 °F /  -11 °C 7.7 °F /  -13.5 °C 1029.7 in /  34865.6 hPa NW 18.5 mph /  29.8 km/h 18.5 mph /  29.8 km/h 74 % 0.0 in /  0 mm 0.0 W/m2 CLR
06:41 11.7 °F /  -11.3 °C 6.8 °F /  -14 °C 1029.7 in /  34865.6 hPa NW 18.5 mph /  29.8 km/h 18.5 mph /  29.8 km/h 72 % 0.0 in /  0 mm 0.0 W/m2 CLR
06:44 11.7 °F /  -11.3 °C 6.8 °F /  -14 °C 1029.7 in /  34865.6 hPa NW 18.5 mph /  29.8 km/h 18.5 mph /  29.8 km/h 72 % 0.0 in /  0 mm 0.0 W/m2 CLR
06:50 11.1 °F /  -11.6 °C 6.3 °F /  -14.3 °C 1029.7 in /  34865.6 hPa NW 18.5 mph /  29.8 km/h 18.5 mph /  29.8 km/h 72 % 0.0 in /  0 mm 0.0 W/m2 CLR
06:51 11.1 °F /  -11.6 °C 6.3 °F /  -14.3 °C 1029.7 in /  34865.6 hPa NW 20.4 mph /  32.8 km/h 20.4 mph /  32.8 km/h 72 % 0.0 in /  0 mm 0.0 W/m2 CLR
06:56 11.1 °F /  -11.6 °C 6.3 °F /  -14.3 °C 1029.7 in /  34865.6 hPa NW 22.2 mph /  35.7 km/h 22.2 mph /  35.7 km/h 72 % 0.0 in /  0 mm 0.0 W/m2 CLR
06:57 11.1 °F /  -11.6 °C 6.3 °F /  -14.3 °C 1030.0 in /  34875.8 hPa NW 20.4 mph /  32.8 km/h 20.4 mph /  32.8 km/h 72 % 0.0 in /  0 mm 0.0 W/m2 CLR
07:02 11.7 °F /  -11.3 °C 6.8 °F /  -14 °C 1030.0 in /  34875.8 hPa NW 20.4 mph /  32.8 km/h 20.4 mph /  32.8 km/h 72 % 0.0 in /  0 mm 0.0 W/m2 CLR
07:06 11.7 °F /  -11.3 °C 6.8 °F /  -14 °C 1029.7 in /  34865.6 hPa NW 19.3 mph /  31.1 km/h 19.3 mph /  31.1 km/h 72 % 0.0 in /  0 mm 0.0 W/m2 CLR
07:11 12.2 °F /  -11 °C 7.3 °F /  -13.7 °C 1029.7 in /  34865.6 hPa WNW 18.5 mph /  29.8 km/h 18.5 mph /  29.8 km/h 72 % 0.0 in /  0 mm 0.0 W/m2 CLR
07:16 12.2 °F /  -11 °C 7.3 °F /  -13.7 °C 1029.7 in /  34865.6 hPa NW 18.5 mph /  29.8 km/h 18.5 mph /  29.8 km/h 72 % 0.0 in /  0 mm 0.0 W/m2 CLR
07:21 12.2 °F /  -11 °C 7.3 °F /  -13.7 °C 1029.7 in /  34865.6 hPa NW 25.9 mph /  41.7 km/h 25.9 mph /  41.7 km/h 72 % 0.0 in /  0 mm 0.0 W/m2 CLR
07:23 12.2 °F /  -11 °C 7.3 °F /  -13.7 °C 1030.0 in /  34875.8 hPa NW 20.4 mph /  32.8 km/h 20.4 mph /  32.8 km/h 72 % 0.0 in /  0 mm 0.0 W/m2 CLR
07:24 12.2 °F /  -11 °C 7.3 °F /  -13.7 °C 1030.0 in /  34875.8 hPa NW 22.2 mph /  35.7 km/h 22.2 mph /  35.7 km/h 72 % 0.0 in /  0 mm 0.0 W/m2 CLR
07:29 12.2 °F /  -11 °C 7.3 °F /  -13.7 °C 1030.0 in /  34875.8 hPa WNW 16.7 mph /  26.9 km/h 16.7 mph /  26.9 km/h 72 % 0.0 in /  0 mm 0.0 W/m2 CLR
07:30 11.7 °F /  -11.3 °C 6.8 °F /  -14 °C 1029.7 in /  34865.6 hPa NW 16.7 mph /  26.9 km/h 16.7 mph /  26.9 km/h 72 % 0.0 in /  0 mm 0.0 W/m2 CLR
07:35 11.7 °F /  -11.3 °C 7.0 °F /  -13.9 °C 1030.0 in /  34875.8 hPa WNW 18.5 mph /  29.8 km/h 18.5 mph /  29.8 km/h 73 % 0.0 in /  0 mm 0.0 W/m2 CLR
07:36 11.7 °F /  -11.3 °C 7.0 °F /  -13.9 °C 1030.0 in /  34875.8 hPa NW 18.5 mph /  29.8 km/h 18.5 mph /  29.8 km/h 73 % 0.0 in /  0 mm 0.0 W/m2 CLR
07:39 11.7 °F /  -11.3 °C 7.0 °F /  -13.9 °C 1029.7 in /  34865.6 hPa WNW 18.5 mph /  29.8 km/h 18.5 mph /  29.8 km/h 73 % 0.0 in /  0 mm 0.0 W/m2 CLR
07:41 11.7 °F /  -11.3 °C 7.0 °F /  -13.9 °C 1029.7 in /  34865.6 hPa NW 20.9 mph /  33.6 km/h 20.9 mph /  33.6 km/h 73 % 0.0 in /  0 mm 0.0 W/m2 CLR
07:46 12.2 °F /  -11 °C 7.5 °F /  -13.6 °C 1029.7 in /  34865.6 hPa WNW 18.5 mph /  29.8 km/h 18.5 mph /  29.8 km/h 73 % 0.0 in /  0 mm 0.0 W/m2 CLR
07:48 11.7 °F /  -11.3 °C 7.0 °F /  -13.9 °C 1030.0 in /  34875.8 hPa NW 14.8 mph /  23.8 km/h 14.8 mph /  23.8 km/h 73 % 0.0 in /  0 mm 0.0 W/m2 CLR
07:53 11.7 °F /  -11.3 °C 7.0 °F /  -13.9 °C 1029.7 in /  34865.6 hPa NW 20.4 mph /  32.8 km/h 20.4 mph /  32.8 km/h 73 % 0.0 in /  0 mm 0.0 W/m2 CLR
07:54 11.7 °F /  -11.3 °C 7.0 °F /  -13.9 °C 1029.7 in /  34865.6 hPa NW 20.4 mph /  32.8 km/h 20.4 mph /  32.8 km/h 73 % 0.0 in /  0 mm 0.0 W/m2 CLR
07:59 11.7 °F /  -11.3 °C 7.0 °F /  -13.9 °C 1029.7 in /  34865.6 hPa WNW 20.9 mph /  33.6 km/h 20.9 mph /  33.6 km/h 73 % 0.0 in /  0 mm 0.0 W/m2 CLR
08:02 11.7 °F /  -11.3 °C 7.0 °F /  -13.9 °C 1029.7 in /  34865.6 hPa WNW 22.2 mph /  35.7 km/h 22.2 mph /  35.7 km/h 73 % 0.0 in /  0 mm 0.0 W/m2 CLR
08:05 11.7 °F /  -11.3 °C 7.0 °F /  -13.9 °C 1029.3 in /  34852.1 hPa WNW 20.9 mph /  33.6 km/h 20.9 mph /  33.6 km/h 73 % 0.0 in /  0 mm 0.0 W/m2 CLR
08:09 11.7 °F /  -11.3 °C 7.0 °F /  -13.9 °C 1029.3 in /  34852.1 hPa NW 24.1 mph /  38.8 km/h 24.1 mph /  38.8 km/h 73 % 0.0 in /  0 mm 0.0 W/m2 CLR
08:12 11.7 °F /  -11.3 °C 7.0 °F /  -13.9 °C 1029.7 in /  34865.6 hPa NW 18.5 mph /  29.8 km/h 18.5 mph /  29.8 km/h 73 % 0.0 in /  0 mm 0.0 W/m2 CLR
08:17 11.1 °F /  -11.6 °C 6.4 °F /  -14.2 °C 1029.7 in /  34865.6 hPa NW 14.8 mph /  23.8 km/h 14.8 mph /  23.8 km/h 73 % 0.0 in /  0 mm 0.0 W/m2 OVC
08:18 11.1 °F /  -11.6 °C 6.4 °F /  -14.2 °C 1029.7 in /  34865.6 hPa NW 18.5 mph /  29.8 km/h 18.5 mph /  29.8 km/h 73 % 0.0 in /  0 mm 0.0 W/m2 OVC
08:20 11.1 °F /  -11.6 °C 6.4 °F /  -14.2 °C 1029.7 in /  34865.6 hPa NW 22.2 mph /  35.7 km/h 22.2 mph /  35.7 km/h 73 % 0.0 in /  0 mm 0.0 W/m2 OVC
08:26 10.6 °F /  -11.9 °C 5.9 °F /  -14.5 °C 1029.7 in /  34865.6 hPa NW 20.9 mph /  33.6 km/h 20.9 mph /  33.6 km/h 73 % 0.0 in /  0 mm 0.0 W/m2 OVC
08:31 10.6 °F /  -11.9 °C 5.9 °F /  -14.5 °C 1029.7 in /  34865.6 hPa NW 18.5 mph /  29.8 km/h 18.5 mph /  29.8 km/h 73 % 0.0 in /  0 mm 0.0 W/m2 OVC
08:32 10.6 °F /  -11.9 °C 5.9 °F /  -14.5 °C 1029.7 in /  34865.6 hPa NW 18.5 mph /  29.8 km/h 18.5 mph /  29.8 km/h 73 % 0.0 in /  0 mm 5.0 W/m2 OVC
08:34 10.6 °F /  -11.9 °C 5.9 °F /  -14.5 °C 1029.7 in /  34865.6 hPa WNW 18.5 mph /  29.8 km/h 18.5 mph /  29.8 km/h 73 % 0.0 in /  0 mm 5.0 W/m2 OVC
08:39 10.6 °F /  -11.9 °C 5.7 °F /  -14.6 °C 1029.7 in /  34865.6 hPa NW 19.3 mph /  31.1 km/h 19.3 mph /  31.1 km/h 72 % 0.0 in /  0 mm 9.0 W/m2 BKN
08:41 10.6 °F /  -11.9 °C 5.7 °F /  -14.6 °C 1029.7 in /  34865.6 hPa WNW 22.2 mph /  35.7 km/h 22.2 mph /  35.7 km/h 72 % 0.0 in /  0 mm 11.0 W/m2 BKN
08:45 10.6 °F /  -11.9 °C 5.7 °F /  -14.6 °C 1029.7 in /  34865.6 hPa NW 18.5 mph /  29.8 km/h 18.5 mph /  29.8 km/h 72 % 0.0 in /  0 mm 12.0 W/m2 BKN
08:50 10.6 °F /  -11.9 °C 5.7 °F /  -14.6 °C 1029.7 in /  34865.6 hPa WNW 18.5 mph /  29.8 km/h 18.5 mph /  29.8 km/h 72 % 0.0 in /  0 mm 16.0 W/m2 BKN
08:55 10.6 °F /  -11.9 °C 5.7 °F /  -14.6 °C 1029.7 in /  34865.6 hPa NW 24.1 mph /  38.8 km/h 24.1 mph /  38.8 km/h 72 % 0.0 in /  0 mm 19.0 W/m2 BKN
08:58 10.6 °F /  -11.9 °C 5.5 °F /  -14.7 °C 1029.7 in /  34865.6 hPa NW 20.4 mph /  32.8 km/h 20.4 mph /  32.8 km/h 71 % 0.0 in /  0 mm 21.0 W/m2 BKN
09:00 10.6 °F /  -11.9 °C 5.5 °F /  -14.7 °C 1029.7 in /  34865.6 hPa WNW 14.8 mph /  23.8 km/h 14.8 mph /  23.8 km/h 71 % 0.0 in /  0 mm 21.0 W/m2 BKN
09:05 10.6 °F /  -11.9 °C 5.5 °F /  -14.7 °C 1029.7 in /  34865.6 hPa WNW 13.0 mph /  20.9 km/h 13.0 mph /  20.9 km/h 71 % 0.0 in /  0 mm 23.0 W/m2 BKN
09:06 10.6 °F /  -11.9 °C 5.5 °F /  -14.7 °C 1029.7 in /  34865.6 hPa West 5.6 mph /  9 km/h 5.6 mph /  9 km/h 71 % 0.0 in /  0 mm 23.0 W/m2 BKN
09:08 10.6 °F /  -11.9 °C 5.5 °F /  -14.7 °C 1029.7 in /  34865.6 hPa West 4.8 mph /  7.7 km/h 4.8 mph /  7.7 km/h 71 % 0.0 in /  0 mm 23.0 W/m2 BKN
09:13 10.6 °F /  -11.9 °C 5.7 °F /  -14.6 °C 1029.7 in /  34865.6 hPa NW 14.8 mph /  23.8 km/h 14.8 mph /  23.8 km/h 72 % 0.0 in /  0 mm 26.0 W/m2 BKN
09:14 10.6 °F /  -11.9 °C 5.7 °F /  -14.6 °C 1029.7 in /  34865.6 hPa West 14.8 mph /  23.8 km/h 14.8 mph /  23.8 km/h 72 % 0.0 in /  0 mm 26.0 W/m2 BKN
09:18 10.0 °F /  -12.2 °C 5.4 °F /  -14.8 °C 1029.7 in /  34865.6 hPa WNW 13.0 mph /  20.9 km/h 13.0 mph /  20.9 km/h 73 % 0.0 in /  0 mm 28.0 W/m2 BKN
09:19 10.0 °F /  -12.2 °C 5.4 °F /  -14.8 °C 1029.7 in /  34865.6 hPa NW 13.0 mph /  20.9 km/h 13.0 mph /  20.9 km/h 73 % 0.0 in /  0 mm 28.0 W/m2 BKN
09:24 10.0 °F /  -12.2 °C 5.2 °F /  -14.9 °C 1029.7 in /  34865.6 hPa WNW 14.8 mph /  23.8 km/h 14.8 mph /  23.8 km/h 72 % 0.0 in /  0 mm 32.0 W/m2 BKN
09:29 9.4 °F /  -12.6 °C 4.8 °F /  -15.1 °C 1030.0 in /  34875.8 hPa WNW 14.8 mph /  23.8 km/h 14.8 mph /  23.8 km/h 73 % 0.0 in /  0 mm 35.0 W/m2 BKN
09:30 9.4 °F /  -12.6 °C 4.8 °F /  -15.1 °C 1030.0 in /  34875.8 hPa West 17.7 mph /  28.5 km/h 17.7 mph /  28.5 km/h 73 % 0.0 in /  0 mm 35.0 W/m2 BKN
09:35 9.4 °F /  -12.6 °C 4.7 °F /  -15.2 °C 1030.0 in /  34875.8 hPa WNW 14.8 mph /  23.8 km/h 14.8 mph /  23.8 km/h 72 % 0.0 in /  0 mm 35.0 W/m2 BKN
09:36 9.4 °F /  -12.6 °C 4.7 °F /  -15.2 °C 1030.0 in /  34875.8 hPa NW 13.0 mph /  20.9 km/h 13.0 mph /  20.9 km/h 72 % 0.0 in /  0 mm 35.0 W/m2 BKN
09:37 9.4 °F /  -12.6 °C 4.7 °F /  -15.2 °C 1030.0 in /  34875.8 hPa WNW 14.8 mph /  23.8 km/h 14.8 mph /  23.8 km/h 72 % 0.0 in /  0 mm 35.0 W/m2 BKN
09:42 9.4 °F /  -12.6 °C 4.7 °F /  -15.2 °C 1030.0 in /  34875.8 hPa WNW 16.7 mph /  26.9 km/h 16.7 mph /  26.9 km/h 72 % 0.0 in /  0 mm 37.0 W/m2 BKN
09:43 9.4 °F /  -12.6 °C 4.7 °F /  -15.2 °C 1030.0 in /  34875.8 hPa WNW 16.7 mph /  26.9 km/h 16.7 mph /  26.9 km/h 72 % 0.0 in /  0 mm 37.0 W/m2 BKN
09:48 9.4 °F /  -12.6 °C 4.7 °F /  -15.2 °C 1030.0 in /  34875.8 hPa West 8.0 mph /  12.9 km/h 8.0 mph /  12.9 km/h 72 % 0.0 in /  0 mm 37.0 W/m2 BKN
09:49 9.4 °F /  -12.6 °C 4.7 °F /  -15.2 °C 1030.0 in /  34875.8 hPa West 13.0 mph /  20.9 km/h 13.0 mph /  20.9 km/h 72 % 0.0 in /  0 mm 39.0 W/m2 BKN
09:54 9.4 °F /  -12.6 °C 4.7 °F /  -15.2 °C 1029.7 in /  34865.6 hPa West 16.7 mph /  26.9 km/h 16.7 mph /  26.9 km/h 72 % 0.0 in /  0 mm 40.0 W/m2 BKN
09:57 10.6 °F /  -11.9 °C 5.7 °F /  -14.6 °C 1029.7 in /  34865.6 hPa WNW 18.5 mph /  29.8 km/h 18.5 mph /  29.8 km/h 72 % 0.0 in /  0 mm 42.0 W/m2 BKN
10:01 11.1 °F /  -11.6 °C 6.3 °F /  -14.3 °C 1029.7 in /  34865.6 hPa WNW 19.3 mph /  31.1 km/h 19.3 mph /  31.1 km/h 72 % 0.0 in /  0 mm 44.0 W/m2 BKN
10:03 11.1 °F /  -11.6 °C 6.3 °F /  -14.3 °C 1029.7 in /  34865.6 hPa NW 22.2 mph /  35.7 km/h 22.2 mph /  35.7 km/h 72 % 0.0 in /  0 mm 46.0 W/m2 BKN
10:08 11.7 °F /  -11.3 °C 6.8 °F /  -14 °C 1029.7 in /  34865.6 hPa NW 20.4 mph /  32.8 km/h 20.4 mph /  32.8 km/h 72 % 0.0 in /  0 mm 49.0 W/m2 SCT
10:13 11.7 °F /  -11.3 °C 6.6 °F /  -14.1 °C 1029.7 in /  34865.6 hPa WNW 14.8 mph /  23.8 km/h 14.8 mph /  23.8 km/h 71 % 0.0 in /  0 mm 56.0 W/m2 SCT
10:17 11.7 °F /  -11.3 °C 6.6 °F /  -14.1 °C 1030.0 in /  34875.8 hPa NW 22.2 mph /  35.7 km/h 22.2 mph /  35.7 km/h 71 % 0.0 in /  0 mm 60.0 W/m2 SCT
10:20 11.7 °F /  -11.3 °C 6.6 °F /  -14.1 °C 1030.0 in /  34875.8 hPa WNW 20.4 mph /  32.8 km/h 20.4 mph /  32.8 km/h 71 % 0.0 in /  0 mm 60.0 W/m2 SCT
10:25 12.2 °F /  -11 °C 6.9 °F /  -13.9 °C 1030.0 in /  34875.8 hPa WNW 14.8 mph /  23.8 km/h 14.8 mph /  23.8 km/h 70 % 0.0 in /  0 mm 62.0 W/m2 SCT
10:26 12.2 °F /  -11 °C 6.9 °F /  -13.9 °C 1030.0 in /  34875.8 hPa WNW 14.8 mph /  23.8 km/h 14.8 mph /  23.8 km/h 70 % 0.0 in /  0 mm 63.0 W/m2 SCT
10:28 12.2 °F /  -11 °C 6.9 °F /  -13.9 °C 1030.0 in /  34875.8 hPa WNW 16.7 mph /  26.9 km/h 16.7 mph /  26.9 km/h 70 % 0.0 in /  0 mm 65.0 W/m2 SCT
10:31 12.8 °F /  -10.7 °C 7.4 °F /  -13.7 °C 1030.0 in /  34875.8 hPa WNW 14.8 mph /  23.8 km/h 14.8 mph /  23.8 km/h 70 % 0.0 in /  0 mm 74.0 W/m2 SCT
10:35 12.8 °F /  -10.7 °C 7.4 °F /  -13.7 °C 1030.0 in /  34875.8 hPa West 9.3 mph /  15 km/h 9.3 mph /  15 km/h 70 % 0.0 in /  0 mm 69.0 W/m2 FEW
10:36 13.3 °F /  -10.4 °C 8.0 °F /  -13.3 °C 1030.0 in /  34875.8 hPa West 7.4 mph /  11.9 km/h 7.4 mph /  11.9 km/h 70 % 0.0 in /  0 mm 77.0 W/m2 FEW
10:40 13.3 °F /  -10.4 °C 8.0 °F /  -13.3 °C 1030.0 in /  34875.8 hPa West 8.0 mph /  12.9 km/h 8.0 mph /  12.9 km/h 70 % 0.0 in /  0 mm 135.0 W/m2 FEW
10:41 13.3 °F /  -10.4 °C 8.0 °F /  -13.3 °C 1030.4 in /  34889.3 hPa West 9.7 mph /  15.6 km/h 9.7 mph /  15.6 km/h 70 % 0.0 in /  0 mm 149.0 W/m2 FEW
10:46 13.9 °F /  -10.1 °C 8.5 °F /  -13.1 °C 1030.0 in /  34875.8 hPa West 14.8 mph /  23.8 km/h 14.8 mph /  23.8 km/h 70 % 0.0 in /  0 mm 211.0 W/m2 CLR
10:51 13.9 °F /  -10.1 °C 8.5 °F /  -13.1 °C 1030.4 in /  34889.3 hPa WNW 16.7 mph /  26.9 km/h 16.7 mph /  26.9 km/h 70 % 0.0 in /  0 mm 264.0 W/m2 CLR
10:52 13.9 °F /  -10.1 °C 8.3 °F /  -13.2 °C 1030.4 in /  34889.3 hPa West 11.3 mph /  18.2 km/h 11.3 mph /  18.2 km/h 69 % 0.0 in /  0 mm 264.0 W/m2 CLR
10:57 14.4 °F /  -9.8 °C 8.6 °F /  -13 °C 1030.4 in /  34889.3 hPa NW 18.5 mph /  29.8 km/h 18.5 mph /  29.8 km/h 68 % 0.0 in /  0 mm 301.0 W/m2 CLR
10:59 14.4 °F /  -9.8 °C 8.6 °F /  -13 °C 1030.4 in /  34889.3 hPa NNW 11.1 mph /  17.9 km/h 11.1 mph /  17.9 km/h 68 % 0.0 in /  0 mm 302.0 W/m2 CLR
11:02 14.4 °F /  -9.8 °C 7.9 °F /  -13.4 °C 1030.4 in /  34889.3 hPa NNW 18.5 mph /  29.8 km/h 18.5 mph /  29.8 km/h 65 % 0.0 in /  0 mm 258.0 W/m2 CLR
11:07 15.0 °F /  -9.4 °C 8.2 °F /  -13.2 °C 1030.4 in /  34889.3 hPa NW 24.1 mph /  38.8 km/h 24.1 mph /  38.8 km/h 64 % 0.0 in /  0 mm 250.0 W/m2 CLR
11:10 15.6 °F /  -9.1 °C 8.6 °F /  -13 °C 1030.4 in /  34889.3 hPa NNW 24.1 mph /  38.8 km/h 24.1 mph /  38.8 km/h 63 % 0.0 in /  0 mm 260.0 W/m2 CLR
11:15 16.7 °F /  -8.5 °C 9.3 °F /  -12.6 °C 1030.4 in /  34889.3 hPa NW 27.8 mph /  44.7 km/h 27.8 mph /  44.7 km/h 62 % 0.0 in /  0 mm 316.0 W/m2 CLR
11:19 17.2 °F /  -8.2 °C 9.6 °F /  -12.4 °C 1030.4 in /  34889.3 hPa NW 35.2 mph /  56.6 km/h 35.2 mph /  56.6 km/h 61 % 0.0 in /  0 mm 315.0 W/m2 CLR
11:26 17.8 °F /  -7.9 °C 10.2 °F /  -12.1 °C 1030.4 in /  34889.3 hPa NW 24.1 mph /  38.8 km/h 24.1 mph /  38.8 km/h 61 % 0.0 in /  0 mm 320.0 W/m2 CLR
11:27 17.8 °F /  -7.9 °C 9.9 °F /  -12.3 °C 1030.0 in /  34875.8 hPa NW 33.8 mph /  54.4 km/h 33.8 mph /  54.4 km/h 60 % 0.0 in /  0 mm 323.0 W/m2 CLR
11:32 17.8 °F /  -7.9 °C 9.9 °F /  -12.3 °C 1030.0 in /  34875.8 hPa NW 27.8 mph /  44.7 km/h 27.8 mph /  44.7 km/h 60 % 0.0 in /  0 mm 341.0 W/m2 CLR
11:37 17.8 °F /  -7.9 °C 9.9 °F /  -12.3 °C 1030.4 in /  34889.3 hPa North 37.0 mph /  59.5 km/h 37.0 mph /  59.5 km/h 60 % 0.0 in /  0 mm 427.0 W/m2 CLR
11:38 18.3 °F /  -7.6 °C 10.4 °F /  -12 °C 1030.4 in /  34889.3 hPa North 37.0 mph /  59.5 km/h 37.0 mph /  59.5 km/h 60 % 0.0 in /  0 mm 415.0 W/m2 CLR
11:43 18.3 °F /  -7.6 °C 10.2 °F /  -12.1 °C 1030.4 in /  34889.3 hPa NW 42.6 mph /  68.6 km/h 42.6 mph /  68.6 km/h 59 % 0.0 in /  0 mm 387.0 W/m2 CLR
11:44 18.3 °F /  -7.6 °C 10.2 °F /  -12.1 °C 1030.4 in /  34889.3 hPa NNW 42.6 mph /  68.6 km/h 42.6 mph /  68.6 km/h 59 % 0.0 in /  0 mm 387.0 W/m2 CLR
11:49 18.3 °F /  -7.6 °C 10.2 °F /  -12.1 °C 1030.0 in /  34875.8 hPa NNW 37.0 mph /  59.5 km/h 37.0 mph /  59.5 km/h 59 % 0.0 in /  0 mm 385.0 W/m2 CLR
11:54 18.3 °F /  -7.6 °C 10.2 °F /  -12.1 °C 1030.0 in /  34875.8 hPa NNW 54.7 mph /  88 km/h 54.7 mph /  88 km/h 59 % 0.0 in /  0 mm 369.0 W/m2 CLR
11:55 18.3 °F /  -7.6 °C 10.2 °F /  -12.1 °C 1030.0 in /  34875.8 hPa NNW 55.5 mph /  89.3 km/h 55.5 mph /  89.3 km/h 59 % 0.0 in /  0 mm 359.0 W/m2 CLR
12:00 18.3 °F /  -7.6 °C 10.4 °F /  -12 °C 1030.0 in /  34875.8 hPa NNW 43.4 mph /  69.8 km/h 43.4 mph /  69.8 km/h 60 % 0.0 in /  0 mm 367.0 W/m2 CLR
12:01 18.3 °F /  -7.6 °C 10.2 °F /  -12.1 °C 1030.0 in /  34875.8 hPa NNW 42.6 mph /  68.6 km/h 42.6 mph /  68.6 km/h 59 % 0.0 in /  0 mm 373.0 W/m2 CLR
12:03 18.3 °F /  -7.6 °C 10.2 °F /  -12.1 °C 1029.7 in /  34865.6 hPa NW 40.7 mph /  65.5 km/h 40.7 mph /  65.5 km/h 59 % 0.0 in /  0 mm 369.0 W/m2 CLR
12:07 18.3 °F /  -7.6 °C 10.2 °F /  -12.1 °C 1029.7 in /  34865.6 hPa North 46.3 mph /  74.5 km/h 46.3 mph /  74.5 km/h 59 % 0.0 in /  0 mm 350.0 W/m2 CLR
12:12 18.3 °F /  -7.6 °C 10.4 °F /  -12 °C 1029.7 in /  34865.6 hPa NNW 48.1 mph /  77.4 km/h 48.1 mph /  77.4 km/h 60 % 0.0 in /  0 mm 392.0 W/m2 CLR
12:17 18.3 °F /  -7.6 °C 10.2 °F /  -12.1 °C 1029.7 in /  34865.6 hPa NW 38.9 mph /  62.6 km/h 38.9 mph /  62.6 km/h 59 % 0.0 in /  0 mm 380.0 W/m2 CLR
12:18 18.3 °F /  -7.6 °C 10.2 °F /  -12.1 °C 1029.7 in /  34865.6 hPa North 48.1 mph /  77.4 km/h 48.1 mph /  77.4 km/h 59 % 0.0 in /  0 mm 390.0 W/m2 CLR
12:22 18.9 °F /  -7.3 °C 10.7 °F /  -11.8 °C 1029.3 in /  34852.1 hPa NNW 40.7 mph /  65.5 km/h 40.7 mph /  65.5 km/h 59 % 0.0 in /  0 mm 401.0 W/m2 CLR
12:24 18.9 °F /  -7.3 °C 10.7 °F /  -11.8 °C 1029.3 in /  34852.1 hPa NNW 35.2 mph /  56.6 km/h 35.2 mph /  56.6 km/h 59 % 0.0 in /  0 mm 388.0 W/m2 CLR
12:28 18.9 °F /  -7.3 °C 10.7 °F /  -11.8 °C 1029.3 in /  34852.1 hPa NNW 37.0 mph /  59.5 km/h 37.0 mph /  59.5 km/h 59 % 0.0 in /  0 mm 411.0 W/m2 CLR
12:31 18.9 °F /  -7.3 °C 10.7 °F /  -11.8 °C 1029.3 in /  34852.1 hPa North 32.2 mph /  51.8 km/h 32.2 mph /  51.8 km/h 59 % 0.0 in /  0 mm 396.0 W/m2 CLR
12:34 18.9 °F /  -7.3 °C 10.7 °F /  -11.8 °C 1029.3 in /  34852.1 hPa NNW 35.4 mph /  57 km/h 35.4 mph /  57 km/h 59 % 0.0 in /  0 mm 380.0 W/m2 CLR
12:39 18.9 °F /  -7.3 °C 10.4 °F /  -12 °C 1029.3 in /  34852.1 hPa NNW 50.0 mph /  80.5 km/h 50.0 mph /  80.5 km/h 58 % 0.0 in /  0 mm 404.0 W/m2 CLR
12:40 18.9 °F /  -7.3 °C 10.7 °F /  -11.8 °C 1029.3 in /  34852.1 hPa North 51.8 mph /  83.4 km/h 51.8 mph /  83.4 km/h 59 % 0.0 in /  0 mm 415.0 W/m2 CLR
12:45 18.9 °F /  -7.3 °C 10.7 °F /  -11.8 °C 1029.3 in /  34852.1 hPa North 40.7 mph /  65.5 km/h 40.7 mph /  65.5 km/h 59 % 0.0 in /  0 mm 415.0 W/m2 CLR
12:49 18.9 °F /  -7.3 °C 10.7 °F /  -11.8 °C 1029.3 in /  34852.1 hPa NNW 38.9 mph /  62.6 km/h 38.9 mph /  62.6 km/h 59 % 0.0 in /  0 mm 396.0 W/m2 CLR
12:52 19.4 °F /  -7 °C 10.9 °F /  -11.7 °C 1029.3 in /  34852.1 hPa North 40.7 mph /  65.5 km/h 40.7 mph /  65.5 km/h 58 % 0.0 in /  0 mm 415.0 W/m2 CLR
12:55 19.4 °F /  -7 °C 10.9 °F /  -11.7 °C 1029.3 in /  34852.1 hPa NNW 38.6 mph /  62.1 km/h 38.6 mph /  62.1 km/h 58 % 0.0 in /  0 mm 411.0 W/m2 CLR
13:00 19.4 °F /  -7 °C 10.9 °F /  -11.7 °C 1029.3 in /  34852.1 hPa NNW 38.9 mph /  62.6 km/h 38.9 mph /  62.6 km/h 58 % 0.0 in /  0 mm 418.0 W/m2 CLR
13:01 19.4 °F /  -7 °C 10.9 °F /  -11.7 °C 1029.3 in /  34852.1 hPa North 37.0 mph /  59.5 km/h 37.0 mph /  59.5 km/h 58 % 0.0 in /  0 mm 429.0 W/m2 CLR
13:04 19.4 °F /  -7 °C 10.9 °F /  -11.7 °C 1029.0 in /  34841.9 hPa NNW 35.2 mph /  56.6 km/h 35.2 mph /  56.6 km/h 58 % 0.0 in /  0 mm 399.0 W/m2 CLR
13:07 19.4 °F /  -7 °C 10.9 °F /  -11.7 °C 1029.0 in /  34841.9 hPa NNW 33.3 mph /  53.6 km/h 33.3 mph /  53.6 km/h 58 % 0.0 in /  0 mm 378.0 W/m2 CLR
13:12 19.4 °F /  -7 °C 10.9 °F /  -11.7 °C 1028.7 in /  34831.8 hPa North 29.0 mph /  46.7 km/h 29.0 mph /  46.7 km/h 58 % 0.0 in /  0 mm 413.0 W/m2 CLR
13:17 19.4 °F /  -7 °C 10.9 °F /  -11.7 °C 1028.3 in /  34818.2 hPa NW 33.3 mph /  53.6 km/h 33.3 mph /  53.6 km/h 58 % 0.0 in /  0 mm 417.0 W/m2 CLR
13:20 19.4 °F /  -7 °C 10.7 °F /  -11.8 °C 1028.3 in /  34818.2 hPa North 35.2 mph /  56.6 km/h 35.2 mph /  56.6 km/h 57 % 0.0 in /  0 mm 406.0 W/m2 CLR
13:25 19.4 °F /  -7 °C 10.7 °F /  -11.8 °C 1028.7 in /  34831.8 hPa North 40.7 mph /  65.5 km/h 40.7 mph /  65.5 km/h 57 % 0.0 in /  0 mm 411.0 W/m2 CLR
13:26 19.4 °F /  -7 °C 10.7 °F /  -11.8 °C 1028.3 in /  34818.2 hPa NNW 46.3 mph /  74.5 km/h 46.3 mph /  74.5 km/h 57 % 0.0 in /  0 mm 404.0 W/m2 CLR
13:31 20.0 °F /  -6.7 °C 10.9 °F /  -11.7 °C 1028.7 in /  34831.8 hPa North 45.1 mph /  72.6 km/h 45.1 mph /  72.6 km/h 56 % 0.0 in /  0 mm 429.0 W/m2 CLR
13:36 20.0 °F /  -6.7 °C 11.2 °F /  -11.6 °C 1028.7 in /  34831.8 hPa NNW 48.1 mph /  77.4 km/h 48.1 mph /  77.4 km/h 57 % 0.0 in /  0 mm 420.0 W/m2 CLR
13:37 20.0 °F /  -6.7 °C 10.9 °F /  -11.7 °C 1028.7 in /  34831.8 hPa North 48.1 mph /  77.4 km/h 48.1 mph /  77.4 km/h 56 % 0.0 in /  0 mm 420.0 W/m2 CLR
13:42 20.0 °F /  -6.7 °C 10.9 °F /  -11.7 °C 1028.7 in /  34831.8 hPa North 38.9 mph /  62.6 km/h 38.9 mph /  62.6 km/h 56 % 0.0 in /  0 mm 401.0 W/m2 CLR
13:43 20.0 °F /  -6.7 °C 10.9 °F /  -11.7 °C 1028.3 in /  34818.2 hPa North 41.8 mph /  67.3 km/h 41.8 mph /  67.3 km/h 56 % 0.0 in /  0 mm 401.0 W/m2 CLR
13:48 20.0 °F /  -6.7 °C 10.9 °F /  -11.7 °C 1028.3 in /  34818.2 hPa NNW 38.9 mph /  62.6 km/h 38.9 mph /  62.6 km/h 56 % 0.0 in /  0 mm 387.0 W/m2 CLR
13:53 20.0 °F /  -6.7 °C 10.9 °F /  -11.7 °C 1028.0 in /  34808.1 hPa North 46.3 mph /  74.5 km/h 46.3 mph /  74.5 km/h 56 % 0.0 in /  0 mm 362.0 W/m2 CLR
13:54 20.0 °F /  -6.7 °C 10.9 °F /  -11.7 °C 1028.0 in /  34808.1 hPa NNW 51.8 mph /  83.4 km/h 51.8 mph /  83.4 km/h 56 % 0.0 in /  0 mm 385.0 W/m2 CLR
13:58 20.0 °F /  -6.7 °C 10.9 °F /  -11.7 °C 1028.0 in /  34808.1 hPa North 50.0 mph /  80.5 km/h 50.0 mph /  80.5 km/h 56 % 0.0 in /  0 mm 366.0 W/m2 CLR
14:00 20.0 °F /  -6.7 °C 10.9 °F /  -11.7 °C 1028.0 in /  34808.1 hPa NNW 44.4 mph /  71.5 km/h 44.4 mph /  71.5 km/h 56 % 0.0 in /  0 mm 381.0 W/m2 CLR
14:02 20.0 °F /  -6.7 °C 10.9 °F /  -11.7 °C 1027.7 in /  34797.9 hPa NW 31.5 mph /  50.7 km/h 31.5 mph /  50.7 km/h 56 % 0.0 in /  0 mm 380.0 W/m2 CLR
14:06 20.0 °F /  -6.7 °C 10.7 °F /  -11.8 °C 1027.7 in /  34797.9 hPa NW 40.7 mph /  65.5 km/h 40.7 mph /  65.5 km/h 55 % 0.0 in /  0 mm 374.0 W/m2 CLR
14:08 20.0 °F /  -6.7 °C 10.7 °F /  -11.8 °C 1028.0 in /  34808.1 hPa NW 35.2 mph /  56.6 km/h 35.2 mph /  56.6 km/h 55 % 0.0 in /  0 mm 399.0 W/m2 CLR
14:13 20.0 °F /  -6.7 °C 10.7 °F /  -11.8 °C 1028.0 in /  34808.1 hPa North 53.1 mph /  85.5 km/h 53.1 mph /  85.5 km/h 55 % 0.0 in /  0 mm 392.0 W/m2 CLR
14:15 20.0 °F /  -6.7 °C 10.7 °F /  -11.8 °C 1028.0 in /  34808.1 hPa North 44.4 mph /  71.5 km/h 44.4 mph /  71.5 km/h 55 % 0.0 in /  0 mm 388.0 W/m2 CLR
14:20 20.0 °F /  -6.7 °C 10.7 °F /  -11.8 °C 1027.7 in /  34797.9 hPa North 55.5 mph /  89.3 km/h 55.5 mph /  89.3 km/h 55 % 0.0 in /  0 mm 359.0 W/m2 CLR
14:24 20.0 °F /  -6.7 °C 10.7 °F /  -11.8 °C 1027.7 in /  34797.9 hPa North 31.5 mph /  50.7 km/h 31.5 mph /  50.7 km/h 55 % 0.0 in /  0 mm 295.0 W/m2 CLR
14:26 20.0 °F /  -6.7 °C 10.7 °F /  -11.8 °C 1027.7 in /  34797.9 hPa NNW 31.5 mph /  50.7 km/h 31.5 mph /  50.7 km/h 55 % 0.0 in /  0 mm 357.0 W/m2 CLR
14:31 20.0 °F /  -6.7 °C 10.7 °F /  -11.8 °C 1027.7 in /  34797.9 hPa NW 35.2 mph /  56.6 km/h 35.2 mph /  56.6 km/h 55 % 0.0 in /  0 mm 346.0 W/m2 CLR
14:33 20.0 °F /  -6.7 °C 10.7 °F /  -11.8 °C 1027.7 in /  34797.9 hPa North 42.6 mph /  68.6 km/h 42.6 mph /  68.6 km/h 55 % 0.0 in /  0 mm 336.0 W/m2 CLR
14:34 20.0 °F /  -6.7 °C 10.7 °F /  -11.8 °C 1027.7 in /  34797.9 hPa NNW 37.0 mph /  59.5 km/h 37.0 mph /  59.5 km/h 55 % 0.0 in /  0 mm 352.0 W/m2 CLR
14:39 20.0 °F /  -6.7 °C 10.7 °F /  -11.8 °C 1027.7 in /  34797.9 hPa NNW 42.6 mph /  68.6 km/h 42.6 mph /  68.6 km/h 55 % 0.0 in /  0 mm 355.0 W/m2 CLR
14:40 20.0 °F /  -6.7 °C 10.7 °F /  -11.8 °C 1027.7 in /  34797.9 hPa North 42.6 mph /  68.6 km/h 42.6 mph /  68.6 km/h 55 % 0.0 in /  0 mm 357.0 W/m2 CLR
14:45 20.0 °F /  -6.7 °C 10.4 °F /  -12 °C 1027.7 in /  34797.9 hPa North 40.7 mph /  65.5 km/h 40.7 mph /  65.5 km/h 54 % 0.0 in /  0 mm 345.0 W/m2 CLR
14:47 20.0 °F /  -6.7 °C 10.4 °F /  -12 °C 1027.7 in /  34797.9 hPa NNW 42.6 mph /  68.6 km/h 42.6 mph /  68.6 km/h 54 % 0.0 in /  0 mm 345.0 W/m2 CLR
14:52 20.0 °F /  -6.7 °C 10.4 °F /  -12 °C 1027.7 in /  34797.9 hPa NNW 38.9 mph /  62.6 km/h 38.9 mph /  62.6 km/h 54 % 0.0 in /  0 mm 339.0 W/m2 CLR
14:53 20.0 °F /  -6.7 °C 10.4 °F /  -12 °C 1027.7 in /  34797.9 hPa NNW 38.9 mph /  62.6 km/h 38.9 mph /  62.6 km/h 54 % 0.0 in /  0 mm 332.0 W/m2 CLR
14:56 20.0 °F /  -6.7 °C 10.4 °F /  -12 °C 1027.3 in /  34784.4 hPa North 35.2 mph /  56.6 km/h 35.2 mph /  56.6 km/h 54 % 0.0 in /  0 mm 332.0 W/m2 CLR
14:58 20.0 °F /  -6.7 °C 10.7 °F /  -11.8 °C 1027.3 in /  34784.4 hPa NNW 24.1 mph /  38.8 km/h 24.1 mph /  38.8 km/h 55 % 0.0 in /  0 mm 323.0 W/m2 CLR
15:03 20.0 °F /  -6.7 °C 10.4 °F /  -12 °C 1027.3 in /  34784.4 hPa NW 38.6 mph /  62.1 km/h 38.6 mph /  62.1 km/h 54 % 0.0 in /  0 mm 316.0 W/m2 CLR
15:04 20.6 °F /  -6.3 °C 10.9 °F /  -11.7 °C 1027.3 in /  34784.4 hPa North 38.9 mph /  62.6 km/h 38.9 mph /  62.6 km/h 54 % 0.0 in /  0 mm 316.0 W/m2 CLR
15:09 20.0 °F /  -6.7 °C 10.4 °F /  -12 °C 1027.3 in /  34784.4 hPa NNW 37.0 mph /  59.5 km/h 37.0 mph /  59.5 km/h 54 % 0.0 in /  0 mm 309.0 W/m2 CLR
15:10 20.0 °F /  -6.7 °C 10.4 °F /  -12 °C 1027.3 in /  34784.4 hPa North 43.4 mph /  69.8 km/h 43.4 mph /  69.8 km/h 54 % 0.0 in /  0 mm 309.0 W/m2 CLR
15:15 20.0 °F /  -6.7 °C 10.7 °F /  -11.8 °C 1027.3 in /  34784.4 hPa North 40.7 mph /  65.5 km/h 40.7 mph /  65.5 km/h 55 % 0.0 in /  0 mm 297.0 W/m2 CLR
15:20 20.0 °F /  -6.7 °C 10.7 °F /  -11.8 °C 1027.3 in /  34784.4 hPa North 46.7 mph /  75.2 km/h 46.7 mph /  75.2 km/h 55 % 0.0 in /  0 mm 288.0 W/m2 CLR
15:22 20.0 °F /  -6.7 °C 10.7 °F /  -11.8 °C 1027.7 in /  34797.9 hPa North 40.2 mph /  64.7 km/h 40.2 mph /  64.7 km/h 55 % 0.0 in /  0 mm 279.0 W/m2 CLR
15:25 20.0 °F /  -6.7 °C 10.7 °F /  -11.8 °C 1027.7 in /  34797.9 hPa NW 35.4 mph /  57 km/h 35.4 mph /  57 km/h 55 % 0.0 in /  0 mm 267.0 W/m2 CLR
15:27 20.0 °F /  -6.7 °C 10.7 °F /  -11.8 °C 1027.7 in /  34797.9 hPa NNW 40.7 mph /  65.5 km/h 40.7 mph /  65.5 km/h 55 % 0.0 in /  0 mm 278.0 W/m2 CLR
15:32 20.0 °F /  -6.7 °C 10.7 °F /  -11.8 °C 1027.7 in /  34797.9 hPa NNE 35.2 mph /  56.6 km/h 35.2 mph /  56.6 km/h 55 % 0.0 in /  0 mm 264.0 W/m2 CLR
15:33 20.0 °F /  -6.7 °C 10.7 °F /  -11.8 °C 1027.7 in /  34797.9 hPa NNE 35.2 mph /  56.6 km/h 35.2 mph /  56.6 km/h 55 % 0.0 in /  0 mm 267.0 W/m2 CLR
15:38 20.0 °F /  -6.7 °C 10.7 °F /  -11.8 °C 1027.7 in /  34797.9 hPa NNW 37.0 mph /  59.5 km/h 37.0 mph /  59.5 km/h 55 % 0.0 in /  0 mm 251.0 W/m2 CLR
15:39 19.4 °F /  -7 °C 10.2 °F /  -12.1 °C 1027.7 in /  34797.9 hPa NNW 31.5 mph /  50.7 km/h 31.5 mph /  50.7 km/h 55 % 0.0 in /  0 mm 250.0 W/m2 CLR
15:41 19.4 °F /  -7 °C 10.2 °F /  -12.1 °C 1027.7 in /  34797.9 hPa North 35.2 mph /  56.6 km/h 35.2 mph /  56.6 km/h 55 % 0.0 in /  0 mm 243.0 W/m2 CLR
15:44 19.4 °F /  -7 °C 10.2 °F /  -12.1 °C 1027.7 in /  34797.9 hPa NNW 42.6 mph /  68.6 km/h 42.6 mph /  68.6 km/h 55 % 0.0 in /  0 mm 218.0 W/m2 CLR
15:48 19.4 °F /  -7 °C 10.4 °F /  -12 °C 1027.7 in /  34797.9 hPa North 38.9 mph /  62.6 km/h 38.9 mph /  62.6 km/h 56 % 0.0 in /  0 mm 232.0 W/m2 CLR
15:50 19.4 °F /  -7 °C 10.4 °F /  -12 °C 1027.7 in /  34797.9 hPa NNW 48.1 mph /  77.4 km/h 48.1 mph /  77.4 km/h 56 % 0.0 in /  0 mm 230.0 W/m2 CLR
15:55 19.4 °F /  -7 °C 10.4 °F /  -12 °C 1027.7 in /  34797.9 hPa NNW 33.3 mph /  53.6 km/h 33.3 mph /  53.6 km/h 56 % 0.0 in /  0 mm 209.0 W/m2 CLR
15:56 19.4 °F /  -7 °C 10.4 °F /  -12 °C 1027.7 in /  34797.9 hPa North 38.6 mph /  62.1 km/h 38.6 mph /  62.1 km/h 56 % 0.0 in /  0 mm 209.0 W/m2 CLR
16:01 19.4 °F /  -7 °C 10.4 °F /  -12 °C 1027.3 in /  34784.4 hPa NW 30.6 mph /  49.2 km/h 30.6 mph /  49.2 km/h 56 % 0.0 in /  0 mm 202.0 W/m2 CLR
16:03 19.4 °F /  -7 °C 10.4 °F /  -12 °C 1027.7 in /  34797.9 hPa NNW 37.0 mph /  59.5 km/h 37.0 mph /  59.5 km/h 56 % 0.0 in /  0 mm 197.0 W/m2 CLR
16:04 19.4 °F /  -7 °C 10.4 °F /  -12 °C 1027.7 in /  34797.9 hPa NW 33.3 mph /  53.6 km/h 33.3 mph /  53.6 km/h 56 % 0.0 in /  0 mm 192.0 W/m2 CLR
16:09 19.4 °F /  -7 °C 10.4 °F /  -12 °C 1027.3 in /  34784.4 hPa NNW 42.6 mph /  68.6 km/h 42.6 mph /  68.6 km/h 56 % 0.0 in /  0 mm 179.0 W/m2 CLR
16:14 18.9 °F /  -7.3 °C 9.9 °F /  -12.3 °C 1027.3 in /  34784.4 hPa NNW 41.8 mph /  67.3 km/h 41.8 mph /  67.3 km/h 56 % 0.0 in /  0 mm 165.0 W/m2 CLR
16:15 18.9 °F /  -7.3 °C 9.9 °F /  -12.3 °C 1027.3 in /  34784.4 hPa NW 46.3 mph /  74.5 km/h 46.3 mph /  74.5 km/h 56 % 0.0 in /  0 mm 160.0 W/m2 CLR
16:19 18.9 °F /  -7.3 °C 9.9 °F /  -12.3 °C 1027.3 in /  34784.4 hPa NW 38.6 mph /  62.1 km/h 38.6 mph /  62.1 km/h 56 % 0.0 in /  0 mm 151.0 W/m2 CLR
16:22 18.9 °F /  -7.3 °C 9.9 °F /  -12.3 °C 1027.3 in /  34784.4 hPa NW 51.8 mph /  83.4 km/h 51.8 mph /  83.4 km/h 56 % 0.0 in /  0 mm 142.0 W/m2 CLR
16:26 18.9 °F /  -7.3 °C 10.2 °F /  -12.1 °C 1027.3 in /  34784.4 hPa NNW 40.7 mph /  65.5 km/h 40.7 mph /  65.5 km/h 57 % 0.0 in /  0 mm 135.0 W/m2 CLR
16:35 18.9 °F /  -7.3 °C 10.2 °F /  -12.1 °C 1027.7 in /  34797.9 hPa NNW 42.6 mph /  68.6 km/h 42.6 mph /  68.6 km/h 57 % 0.0 in /  0 mm 113.0 W/m2 CLR
16:38 18.9 °F /  -7.3 °C 10.2 °F /  -12.1 °C 1027.7 in /  34797.9 hPa NW 27.8 mph /  44.7 km/h 27.8 mph /  44.7 km/h 57 % 0.0 in /  0 mm 107.0 W/m2 CLR
16:42 18.3 °F /  -7.6 °C 9.7 °F /  -12.4 °C 1027.7 in /  34797.9 hPa North 40.7 mph /  65.5 km/h 40.7 mph /  65.5 km/h 57 % 0.0 in /  0 mm 93.0 W/m2 CLR
16:44 18.3 °F /  -7.6 °C 9.7 °F /  -12.4 °C 1027.7 in /  34797.9 hPa NNW 46.3 mph /  74.5 km/h 46.3 mph /  74.5 km/h 57 % 0.0 in /  0 mm 84.0 W/m2 CLR
16:47 18.3 °F /  -7.6 °C 9.9 °F /  -12.3 °C 1027.7 in /  34797.9 hPa North 37.0 mph /  59.5 km/h 37.0 mph /  59.5 km/h 58 % 0.0 in /  0 mm 77.0 W/m2 FEW
16:52 18.3 °F /  -7.6 °C 9.9 °F /  -12.3 °C 1027.7 in /  34797.9 hPa NW 40.7 mph /  65.5 km/h 40.7 mph /  65.5 km/h 58 % 0.0 in /  0 mm 65.0 W/m2 SCT
16:53 18.3 °F /  -7.6 °C 9.9 °F /  -12.3 °C 1027.7 in /  34797.9 hPa NW 40.7 mph /  65.5 km/h 40.7 mph /  65.5 km/h 58 % 0.0 in /  0 mm 63.0 W/m2 SCT
16:54 18.3 °F /  -7.6 °C 9.9 °F /  -12.3 °C 1027.7 in /  34797.9 hPa NW 37.0 mph /  59.5 km/h 37.0 mph /  59.5 km/h 58 % 0.0 in /  0 mm 62.0 W/m2 SCT
16:59 18.3 °F /  -7.6 °C 9.9 °F /  -12.3 °C 1027.7 in /  34797.9 hPa NNW 31.5 mph /  50.7 km/h 31.5 mph /  50.7 km/h 58 % 0.0 in /  0 mm 54.0 W/m2 SCT
17:00 18.3 °F /  -7.6 °C 9.9 °F /  -12.3 °C 1027.7 in /  34797.9 hPa NW 31.5 mph /  50.7 km/h 31.5 mph /  50.7 km/h 58 % 0.0 in /  0 mm 53.0 W/m2 SCT
17:05 17.8 °F /  -7.9 °C 9.7 °F /  -12.4 °C 1027.7 in /  34797.9 hPa NW 37.0 mph /  59.5 km/h 37.0 mph /  59.5 km/h 59 % 0.0 in /  0 mm 42.0 W/m2 SCT
17:10 17.8 °F /  -7.9 °C 9.7 °F /  -12.4 °C 1027.7 in /  34797.9 hPa NW 29.6 mph /  47.6 km/h 29.6 mph /  47.6 km/h 59 % 0.0 in /  0 mm 33.0 W/m2 BKN
17:13 17.8 °F /  -7.9 °C 9.7 °F /  -12.4 °C 1027.3 in /  34784.4 hPa NW 31.5 mph /  50.7 km/h 31.5 mph /  50.7 km/h 59 % 0.0 in /  0 mm 30.0 W/m2 BKN
17:16 17.8 °F /  -7.9 °C 9.7 °F /  -12.4 °C 1027.3 in /  34784.4 hPa NNW 33.3 mph /  53.6 km/h 33.3 mph /  53.6 km/h 59 % 0.0 in /  0 mm 26.0 W/m2 BKN
17:21 17.8 °F /  -7.9 °C 9.9 °F /  -12.3 °C 1027.7 in /  34797.9 hPa NW 31.5 mph /  50.7 km/h 31.5 mph /  50.7 km/h 60 % 0.0 in /  0 mm 21.0 W/m2 BKN
17:23 17.8 °F /  -7.9 °C 9.9 °F /  -12.3 °C 1027.7 in /  34797.9 hPa North 24.1 mph /  38.8 km/h 24.1 mph /  38.8 km/h 60 % 0.0 in /  0 mm 18.0 W/m2 BKN
17:26 17.8 °F /  -7.9 °C 10.2 °F /  -12.1 °C 1027.7 in /  34797.9 hPa NW 32.2 mph /  51.8 km/h 32.2 mph /  51.8 km/h 61 % 0.0 in /  0 mm 16.0 W/m2 BKN
17:30 17.8 °F /  -7.9 °C 10.2 °F /  -12.1 °C 1027.7 in /  34797.9 hPa NNW 29.6 mph /  47.6 km/h 29.6 mph /  47.6 km/h 61 % 0.0 in /  0 mm 12.0 W/m2 BKN
17:32 17.8 °F /  -7.9 °C 10.2 °F /  -12.1 °C 1027.7 in /  34797.9 hPa NW 37.0 mph /  59.5 km/h 37.0 mph /  59.5 km/h 61 % 0.0 in /  0 mm 12.0 W/m2 BKN
17:36 17.2 °F /  -8.2 °C 9.6 °F /  -12.4 °C 1027.7 in /  34797.9 hPa NW 35.4 mph /  57 km/h 35.4 mph /  57 km/h 61 % 0.0 in /  0 mm 9.0 W/m2 BKN
17:37 17.2 °F /  -8.2 °C 9.6 °F /  -12.4 °C 1027.7 in /  34797.9 hPa NW 35.2 mph /  56.6 km/h 35.2 mph /  56.6 km/h 61 % 0.0 in /  0 mm 7.0 W/m2 BKN
17:42 17.2 °F /  -8.2 °C 9.9 °F /  -12.3 °C 1027.7 in /  34797.9 hPa NNW 27.8 mph /  44.7 km/h 27.8 mph /  44.7 km/h 62 % 0.0 in /  0 mm 5.0 W/m2 OVC
17:43 17.2 °F /  -8.2 °C 9.9 °F /  -12.3 °C 1027.7 in /  34797.9 hPa NNW 37.0 mph /  59.5 km/h 37.0 mph /  59.5 km/h 62 % 0.0 in /  0 mm 5.0 W/m2 OVC
17:48 17.2 °F /  -8.2 °C 9.9 °F /  -12.3 °C 1027.3 in /  34784.4 hPa NW 32.2 mph /  51.8 km/h 32.2 mph /  51.8 km/h 62 % 0.0 in /  0 mm 5.0 W/m2 OVC
17:49 17.2 °F /  -8.2 °C 9.9 °F /  -12.3 °C 1027.3 in /  34784.4 hPa NW 37.0 mph /  59.5 km/h 37.0 mph /  59.5 km/h 62 % 0.0 in /  0 mm 5.0 W/m2 OVC
17:54 17.2 °F /  -8.2 °C 9.9 °F /  -12.3 °C 1027.0 in /  34774.2 hPa NW 24.1 mph /  38.8 km/h 24.1 mph /  38.8 km/h 62 % 0.0 in /  0 mm 5.0 W/m2 CLR
17:56 17.2 °F /  -8.2 °C 9.9 °F /  -12.3 °C 1027.0 in /  34774.2 hPa NW 37.0 mph /  59.5 km/h 37.0 mph /  59.5 km/h 62 % 0.0 in /  0 mm 5.0 W/m2 CLR
17:58 17.2 °F /  -8.2 °C 10.1 °F /  -12.2 °C 1027.0 in /  34774.2 hPa NW 35.2 mph /  56.6 km/h 35.2 mph /  56.6 km/h 63 % 0.0 in /  0 mm 0.0 W/m2 CLR
18:03 17.2 °F /  -8.2 °C 10.1 °F /  -12.2 °C 1027.3 in /  34784.4 hPa NW 31.5 mph /  50.7 km/h 31.5 mph /  50.7 km/h 63 % 0.0 in /  0 mm 0.0 W/m2 CLR
18:04 17.2 °F /  -8.2 °C 10.1 °F /  -12.2 °C 1027.3 in /  34784.4 hPa WNW 31.5 mph /  50.7 km/h 31.5 mph /  50.7 km/h 63 % 0.0 in /  0 mm 0.0 W/m2 CLR
18:09 17.2 °F /  -8.2 °C 10.1 °F /  -12.2 °C 1027.3 in /  34784.4 hPa NW 37.0 mph /  59.5 km/h 37.0 mph /  59.5 km/h 63 % 0.0 in /  0 mm 0.0 W/m2 CLR
18:14 16.7 °F /  -8.5 °C 9.6 °F /  -12.4 °C 1027.3 in /  34784.4 hPa NW 33.3 mph /  53.6 km/h 33.3 mph /  53.6 km/h 63 % 0.0 in /  0 mm 0.0 W/m2 CLR
18:19 16.7 °F /  -8.5 °C 9.6 °F /  -12.4 °C 1027.3 in /  34784.4 hPa NW 25.9 mph /  41.7 km/h 25.9 mph /  41.7 km/h 63 % 0.0 in /  0 mm 0.0 W/m2 CLR
18:21 16.7 °F /  -8.5 °C 9.8 °F /  -12.3 °C 1027.3 in /  34784.4 hPa NNW 29.6 mph /  47.6 km/h 29.6 mph /  47.6 km/h 64 % 0.0 in /  0 mm 0.0 W/m2 CLR
18:26 16.7 °F /  -8.5 °C 9.8 °F /  -12.3 °C 1027.3 in /  34784.4 hPa NW 38.9 mph /  62.6 km/h 38.9 mph /  62.6 km/h 64 % 0.0 in /  0 mm 0.0 W/m2 CLR
18:27 16.7 °F /  -8.5 °C 9.8 °F /  -12.3 °C 1027.3 in /  34784.4 hPa NNW 38.9 mph /  62.6 km/h 38.9 mph /  62.6 km/h 64 % 0.0 in /  0 mm 0.0 W/m2 CLR
18:28 16.7 °F /  -8.5 °C 9.8 °F /  -12.3 °C 1027.3 in /  34784.4 hPa NW 35.2 mph /  56.6 km/h 35.2 mph /  56.6 km/h 64 % 0.0 in /  0 mm 0.0 W/m2 CLR
18:33 16.7 °F /  -8.5 °C 9.8 °F /  -12.3 °C 1027.3 in /  34784.4 hPa NW 29.6 mph /  47.6 km/h 29.6 mph /  47.6 km/h 64 % 0.0 in /  0 mm 0.0 W/m2 CLR
18:38 16.7 °F /  -8.5 °C 9.8 °F /  -12.3 °C 1027.3 in /  34784.4 hPa NNW 31.5 mph /  50.7 km/h 31.5 mph /  50.7 km/h 64 % 0.0 in /  0 mm 0.0 W/m2 CLR
18:39 16.7 °F /  -8.5 °C 9.8 °F /  -12.3 °C 1027.3 in /  34784.4 hPa NNW 27.8 mph /  44.7 km/h 27.8 mph /  44.7 km/h 64 % 0.0 in /  0 mm 0.0 W/m2 CLR
18:44 16.7 °F /  -8.5 °C 10.1 °F /  -12.2 °C 1027.3 in /  34784.4 hPa NNW 31.5 mph /  50.7 km/h 31.5 mph /  50.7 km/h 65 % 0.0 in /  0 mm 0.0 W/m2 CLR
18:45 16.7 °F /  -8.5 °C 10.1 °F /  -12.2 °C 1027.3 in /  34784.4 hPa WNW 20.4 mph /  32.8 km/h 20.4 mph /  32.8 km/h 65 % 0.0 in /  0 mm 0.0 W/m2 CLR
18:50 16.1 °F /  -8.8 °C 9.5 °F /  -12.5 °C 1027.3 in /  34784.4 hPa NW 19.3 mph /  31.1 km/h 19.3 mph /  31.1 km/h 65 % 0.0 in /  0 mm 0.0 W/m2 CLR
18:52 16.1 °F /  -8.8 °C 9.5 °F /  -12.5 °C 1027.3 in /  34784.4 hPa NW 24.1 mph /  38.8 km/h 24.1 mph /  38.8 km/h 65 % 0.0 in /  0 mm 0.0 W/m2 CLR
18:57 16.1 °F /  -8.8 °C 9.5 °F /  -12.5 °C 1027.3 in /  34784.4 hPa NW 16.7 mph /  26.9 km/h 16.7 mph /  26.9 km/h 65 % 0.0 in /  0 mm 0.0 W/m2 CLR
18:58 16.1 °F /  -8.8 °C 9.5 °F /  -12.5 °C 1027.3 in /  34784.4 hPa NW 18.5 mph /  29.8 km/h 18.5 mph /  29.8 km/h 65 % 0.0 in /  0 mm 0.0 W/m2 CLR
19:00 16.1 °F /  -8.8 °C 9.5 °F /  -12.5 °C 1027.3 in /  34784.4 hPa WNW 16.7 mph /  26.9 km/h 16.7 mph /  26.9 km/h 65 % 0.0 in /  0 mm 0.0 W/m2 CLR
19:05 16.1 °F /  -8.8 °C 9.8 °F /  -12.3 °C 1027.3 in /  34784.4 hPa NW 18.5 mph /  29.8 km/h 18.5 mph /  29.8 km/h 66 % 0.0 in /  0 mm 0.0 W/m2 CLR
19:09 16.1 °F /  -8.8 °C 9.8 °F /  -12.3 °C 1027.7 in /  34797.9 hPa NW 18.5 mph /  29.8 km/h 18.5 mph /  29.8 km/h 66 % 0.0 in /  0 mm 0.0 W/m2 CLR
19:10 16.1 °F /  -8.8 °C 9.8 °F /  -12.3 °C 1027.3 in /  34784.4 hPa NW 18.5 mph /  29.8 km/h 18.5 mph /  29.8 km/h 66 % 0.0 in /  0 mm 0.0 W/m2 CLR
19:15 15.6 °F /  -9.1 °C 9.2 °F /  -12.7 °C 1027.7 in /  34797.9 hPa NNW 22.2 mph /  35.7 km/h 22.2 mph /  35.7 km/h 66 % 0.0 in /  0 mm 0.0 W/m2 CLR
19:20 15.6 °F /  -9.1 °C 9.2 °F /  -12.7 °C 1027.3 in /  34784.4 hPa NNW 25.7 mph /  41.4 km/h 25.7 mph /  41.4 km/h 66 % 0.0 in /  0 mm 0.0 W/m2 CLR
19:22 15.6 °F /  -9.1 °C 9.4 °F /  -12.6 °C 1027.7 in /  34797.9 hPa NW 24.1 mph /  38.8 km/h 24.1 mph /  38.8 km/h 67 % 0.0 in /  0 mm 0.0 W/m2 CLR
19:26 15.6 °F /  -9.1 °C 9.4 °F /  -12.6 °C 1027.7 in /  34797.9 hPa NW 29.6 mph /  47.6 km/h 29.6 mph /  47.6 km/h 67 % 0.0 in /  0 mm 0.0 W/m2 CLR
19:28 15.6 °F /  -9.1 °C 9.4 °F /  -12.6 °C 1027.7 in /  34797.9 hPa NNW 27.8 mph /  44.7 km/h 27.8 mph /  44.7 km/h 67 % 0.0 in /  0 mm 0.0 W/m2 CLR
19:31 15.6 °F /  -9.1 °C 9.4 °F /  -12.6 °C 1027.7 in /  34797.9 hPa NNW 24.1 mph /  38.8 km/h 24.1 mph /  38.8 km/h 67 % 0.0 in /  0 mm 0.0 W/m2 CLR
19:36 16.1 °F /  -8.8 °C 10.0 °F /  -12.2 °C 1027.7 in /  34797.9 hPa NNW 24.1 mph /  38.8 km/h 24.1 mph /  38.8 km/h 67 % 0.0 in /  0 mm 0.0 W/m2 CLR
19:37 16.1 °F /  -8.8 °C 10.0 °F /  -12.2 °C 1027.7 in /  34797.9 hPa NNW 33.8 mph /  54.4 km/h 33.8 mph /  54.4 km/h 67 % 0.0 in /  0 mm 0.0 W/m2 CLR
19:42 16.1 °F /  -8.8 °C 10.0 °F /  -12.2 °C 1027.7 in /  34797.9 hPa NW 33.3 mph /  53.6 km/h 33.3 mph /  53.6 km/h 67 % 0.0 in /  0 mm 0.0 W/m2 CLR
19:44 16.1 °F /  -8.8 °C 10.0 °F /  -12.2 °C 1027.7 in /  34797.9 hPa North 31.5 mph /  50.7 km/h 31.5 mph /  50.7 km/h 67 % 0.0 in /  0 mm 0.0 W/m2 CLR
19:49 16.1 °F /  -8.8 °C 10.0 °F /  -12.2 °C 1027.7 in /  34797.9 hPa NNW 31.5 mph /  50.7 km/h 31.5 mph /  50.7 km/h 67 % 0.0 in /  0 mm 0.0 W/m2 CLR
19:53 16.1 °F /  -8.8 °C 10.0 °F /  -12.2 °C 1027.7 in /  34797.9 hPa NW 27.4 mph /  44.1 km/h 27.4 mph /  44.1 km/h 67 % 0.0 in /  0 mm 0.0 W/m2 CLR
19:56 15.6 °F /  -9.1 °C 9.4 °F /  -12.6 °C 1027.7 in /  34797.9 hPa NNW 22.2 mph /  35.7 km/h 22.2 mph /  35.7 km/h 67 % 0.0 in /  0 mm 0.0 W/m2 CLR
19:59 15.6 °F /  -9.1 °C 9.4 °F /  -12.6 °C 1028.0 in /  34808.1 hPa NNW 18.5 mph /  29.8 km/h 18.5 mph /  29.8 km/h 67 % 0.0 in /  0 mm 0.0 W/m2 CLR
20:02 15.6 °F /  -9.1 °C 9.7 °F /  -12.4 °C 1027.7 in /  34797.9 hPa NW 22.2 mph /  35.7 km/h 22.2 mph /  35.7 km/h 68 % 0.0 in /  0 mm 0.0 W/m2 CLR
20:07 15.6 °F /  -9.1 °C 9.7 °F /  -12.4 °C 1028.0 in /  34808.1 hPa NW 22.2 mph /  35.7 km/h 22.2 mph /  35.7 km/h 68 % 0.0 in /  0 mm 0.0 W/m2 CLR
20:08 15.6 °F /  -9.1 °C 9.7 °F /  -12.4 °C 1028.0 in /  34808.1 hPa NW 31.5 mph /  50.7 km/h 31.5 mph /  50.7 km/h 68 % 0.0 in /  0 mm 0.0 W/m2 CLR
20:13 15.6 °F /  -9.1 °C 9.4 °F /  -12.6 °C 1028.0 in /  34808.1 hPa NNW 20.9 mph /  33.6 km/h 20.9 mph /  33.6 km/h 67 % 0.0 in /  0 mm 0.0 W/m2 CLR
20:18 15.6 °F /  -9.1 °C 9.7 °F /  -12.4 °C 1028.0 in /  34808.1 hPa NW 20.9 mph /  33.6 km/h 20.9 mph /  33.6 km/h 68 % 0.0 in /  0 mm 0.0 W/m2 CLR
20:20 15.6 °F /  -9.1 °C 9.7 °F /  -12.4 °C 1028.0 in /  34808.1 hPa NW 22.2 mph /  35.7 km/h 22.2 mph /  35.7 km/h 68 % 0.0 in /  0 mm 0.0 W/m2 CLR
20:23 15.6 °F /  -9.1 °C 9.7 °F /  -12.4 °C 1028.0 in /  34808.1 hPa NW 18.5 mph /  29.8 km/h 18.5 mph /  29.8 km/h 68 % 0.0 in /  0 mm 0.0 W/m2 CLR
20:25 15.6 °F /  -9.1 °C 9.7 °F /  -12.4 °C 1028.0 in /  34808.1 hPa WNW 18.5 mph /  29.8 km/h 18.5 mph /  29.8 km/h 68 % 0.0 in /  0 mm 0.0 W/m2 CLR
20:28 15.6 °F /  -9.1 °C 9.7 °F /  -12.4 °C 1028.0 in /  34808.1 hPa NNW 25.7 mph /  41.4 km/h 25.7 mph /  41.4 km/h 68 % 0.0 in /  0 mm 0.0 W/m2 CLR
20:30 15.6 °F /  -9.1 °C 9.7 °F /  -12.4 °C 1028.0 in /  34808.1 hPa WNW 22.2 mph /  35.7 km/h 22.2 mph /  35.7 km/h 68 % 0.0 in /  0 mm 0.0 W/m2 CLR
20:36 15.6 °F /  -9.1 °C 9.7 °F /  -12.4 °C 1028.0 in /  34808.1 hPa WNW 18.5 mph /  29.8 km/h 18.5 mph /  29.8 km/h 68 % 0.0 in /  0 mm 0.0 W/m2 CLR
20:41 15.0 °F /  -9.4 °C 9.1 °F /  -12.7 °C 1028.0 in /  34808.1 hPa WNW 16.7 mph /  26.9 km/h 16.7 mph /  26.9 km/h 68 % 0.0 in /  0 mm 0.0 W/m2 CLR
20:46 15.0 °F /  -9.4 °C 8.9 °F /  -12.8 °C 1028.0 in /  34808.1 hPa WNW 16.7 mph /  26.9 km/h 16.7 mph /  26.9 km/h 67 % 0.0 in /  0 mm 0.0 W/m2 CLR
20:51 15.0 °F /  -9.4 °C 8.9 °F /  -12.8 °C 1028.0 in /  34808.1 hPa NW 18.5 mph /  29.8 km/h 18.5 mph /  29.8 km/h 67 % 0.0 in /  0 mm 0.0 W/m2 CLR
20:56 15.0 °F /  -9.4 °C 8.9 °F /  -12.8 °C 1028.0 in /  34808.1 hPa NNW 14.8 mph /  23.8 km/h 14.8 mph /  23.8 km/h 67 % 0.0 in /  0 mm 0.0 W/m2 CLR
21:01 15.0 °F /  -9.4 °C 8.9 °F /  -12.8 °C 1028.0 in /  34808.1 hPa NW 14.8 mph /  23.8 km/h 14.8 mph /  23.8 km/h 67 % 0.0 in /  0 mm 0.0 W/m2 CLR
21:06 15.0 °F /  -9.4 °C 8.9 °F /  -12.8 °C 1028.0 in /  34808.1 hPa WNW 14.8 mph /  23.8 km/h 14.8 mph /  23.8 km/h 67 % 0.0 in /  0 mm 0.0 W/m2 CLR
21:07 15.0 °F /  -9.4 °C 8.9 °F /  -12.8 °C 1028.0 in /  34808.1 hPa NW 14.8 mph /  23.8 km/h 14.8 mph /  23.8 km/h 67 % 0.0 in /  0 mm 0.0 W/m2 CLR
21:12 15.0 °F /  -9.4 °C 8.9 °F /  -12.8 °C 1028.0 in /  34808.1 hPa NW 14.8 mph /  23.8 km/h 14.8 mph /  23.8 km/h 67 % 0.0 in /  0 mm 0.0 W/m2 CLR
21:17 14.4 °F /  -9.8 °C 8.6 °F /  -13 °C 1028.0 in /  34808.1 hPa WNW 14.8 mph /  23.8 km/h 14.8 mph /  23.8 km/h 68 % 0.0 in /  0 mm 0.0 W/m2 CLR
21:18 14.4 °F /  -9.8 °C 8.6 °F /  -13 °C 1028.0 in /  34808.1 hPa NW 13.0 mph /  20.9 km/h 13.0 mph /  20.9 km/h 68 % 0.0 in /  0 mm 0.0 W/m2 CLR
21:23 13.9 °F /  -10.1 °C 8.1 °F /  -13.3 °C 1028.0 in /  34808.1 hPa NW 13.0 mph /  20.9 km/h 13.0 mph /  20.9 km/h 68 % 0.0 in /  0 mm 0.0 W/m2 CLR
21:28 13.3 °F /  -10.4 °C 7.6 °F /  -13.6 °C 1028.3 in /  34818.2 hPa WNW 9.7 mph /  15.6 km/h 9.7 mph /  15.6 km/h 68 % 0.0 in /  0 mm 0.0 W/m2 CLR
21:30 13.3 °F /  -10.4 °C 7.6 °F /  -13.6 °C 1028.3 in /  34818.2 hPa WNW 7.4 mph /  11.9 km/h 7.4 mph /  11.9 km/h 68 % 0.0 in /  0 mm 0.0 W/m2 CLR
21:34 12.8 °F /  -10.7 °C 7.0 °F /  -13.9 °C 1028.0 in /  34808.1 hPa NW 12.9 mph /  20.8 km/h 12.9 mph /  20.8 km/h 68 % 0.0 in /  0 mm 0.0 W/m2 CLR
21:38 12.8 °F /  -10.7 °C 7.0 °F /  -13.9 °C 1028.0 in /  34808.1 hPa WNW 3.7 mph /  6 km/h 3.7 mph /  6 km/h 68 % 0.0 in /  0 mm 0.0 W/m2 CLR
21:39 12.2 °F /  -11 °C 6.5 °F /  -14.2 °C 1028.0 in /  34808.1 hPa WNW 9.7 mph /  15.6 km/h 9.7 mph /  15.6 km/h 68 % 0.0 in /  0 mm 0.0 W/m2 CLR
21:44 12.2 °F /  -11 °C 6.5 °F /  -14.2 °C 1028.0 in /  34808.1 hPa WNW 3.7 mph /  6 km/h 3.7 mph /  6 km/h 68 % 0.0 in /  0 mm 0.0 W/m2 CLR
21:45 12.2 °F /  -11 °C 6.5 °F /  -14.2 °C 1028.0 in /  34808.1 hPa WNW 3.7 mph /  6 km/h   68 % 0.0 in /  0 mm 0.0 W/m2 CLR
21:50 11.7 °F /  -11.3 °C 5.9 °F /  -14.5 °C 1028.0 in /  34808.1 hPa Calm     68 % 0.0 in /  0 mm 0.0 W/m2 CLR
21:54 11.1 °F /  -11.6 °C 5.6 °F /  -14.7 °C 1027.7 in /  34797.9 hPa Calm     69 % 0.0 in /  0 mm 0.0 W/m2 CLR
21:55 11.1 °F /  -11.6 °C 5.6 °F /  -14.7 °C 1027.7 in /  34797.9 hPa Calm     69 % 0.0 in /  0 mm 0.0 W/m2 CLR
22:00 11.1 °F /  -11.6 °C 5.8 °F /  -14.6 °C 1027.7 in /  34797.9 hPa Calm     70 % 0.0 in /  0 mm 0.0 W/m2 CLR
22:01 11.1 °F /  -11.6 °C 5.8 °F /  -14.6 °C 1027.7 in /  34797.9 hPa Calm     70 % 0.0 in /  0 mm 0.0 W/m2 CLR
22:06 10.6 °F /  -11.9 °C 5.5 °F /  -14.7 °C 1027.7 in /  34797.9 hPa Calm     71 % 0.0 in /  0 mm 0.0 W/m2 CLR
22:11 10.0 °F /  -12.2 °C 5.2 °F /  -14.9 °C 1027.7 in /  34797.9 hPa WNW 5.6 mph /  9 km/h 5.6 mph /  9 km/h 72 % 0.0 in /  0 mm 0.0 W/m2 CLR
22:16 9.4 °F /  -12.6 °C 4.7 °F /  -15.2 °C 1027.7 in /  34797.9 hPa West 7.4 mph /  11.9 km/h 7.4 mph /  11.9 km/h 72 % 0.0 in /  0 mm 0.0 W/m2 CLR
22:17 9.4 °F /  -12.6 °C 4.7 °F /  -15.2 °C 1027.3 in /  34784.4 hPa West 7.4 mph /  11.9 km/h 7.4 mph /  11.9 km/h 72 % 0.0 in /  0 mm 0.0 W/m2 CLR
22:23 9.4 °F /  -12.6 °C 4.7 °F /  -15.2 °C 1027.7 in /  34797.9 hPa WNW 18.5 mph /  29.8 km/h 18.5 mph /  29.8 km/h 72 % 0.0 in /  0 mm 0.0 W/m2 CLR
22:24 9.4 °F /  -12.6 °C 4.4 °F /  -15.3 °C 1027.7 in /  34797.9 hPa WNW 18.5 mph /  29.8 km/h 18.5 mph /  29.8 km/h 71 % 0.0 in /  0 mm 0.0 W/m2 CLR
22:34 8.9 °F /  -12.8 °C 3.5 °F /  -15.8 °C 1027.7 in /  34797.9 hPa NW 18.5 mph /  29.8 km/h 18.5 mph /  29.8 km/h 69 % 0.0 in /  0 mm 0.0 W/m2 CLR
22:35 8.9 °F /  -12.8 °C 3.5 °F /  -15.8 °C 1027.7 in /  34797.9 hPa WSW 22.5 mph /  36.2 km/h 22.5 mph /  36.2 km/h 69 % 0.0 in /  0 mm 0.0 W/m2 CLR
22:37 9.4 °F /  -12.6 °C 4.1 °F /  -15.5 °C 1027.7 in /  34797.9 hPa WNW 18.5 mph /  29.8 km/h 18.5 mph /  29.8 km/h 69 % 0.0 in /  0 mm 0.0 W/m2 CLR
22:40 9.4 °F /  -12.6 °C 3.8 °F /  -15.7 °C 1027.7 in /  34797.9 hPa WNW 13.0 mph /  20.9 km/h 13.0 mph /  20.9 km/h 68 % 0.0 in /  0 mm 0.0 W/m2 CLR
22:41 9.4 °F /  -12.6 °C 3.8 °F /  -15.7 °C 1027.3 in /  34784.4 hPa WNW 18.5 mph /  29.8 km/h 18.5 mph /  29.8 km/h 68 % 0.0 in /  0 mm 0.0 W/m2 CLR
22:46 10.0 °F /  -12.2 °C 4.3 °F /  -15.4 °C 1027.7 in /  34797.9 hPa NW 22.2 mph /  35.7 km/h 22.2 mph /  35.7 km/h 68 % 0.0 in /  0 mm 0.0 W/m2 CLR
22:47 10.0 °F /  -12.2 °C 4.3 °F /  -15.4 °C 1027.7 in /  34797.9 hPa WNW 22.2 mph /  35.7 km/h 22.2 mph /  35.7 km/h 68 % 0.0 in /  0 mm 0.0 W/m2 CLR
22:49 10.6 °F /  -11.9 °C 4.9 °F /  -15.1 °C 1027.3 in /  34784.4 hPa WNW 18.5 mph /  29.8 km/h 18.5 mph /  29.8 km/h 68 % 0.0 in /  0 mm 0.0 W/m2 CLR
22:52 11.7 °F /  -11.3 °C 5.9 °F /  -14.5 °C 1027.7 in /  34797.9 hPa WNW 18.5 mph /  29.8 km/h 18.5 mph /  29.8 km/h 68 % 0.0 in /  0 mm 0.0 W/m2 CLR
22:57 12.2 °F /  -11 °C 6.5 °F /  -14.2 °C 1027.7 in /  34797.9 hPa WNW 17.7 mph /  28.5 km/h 17.7 mph /  28.5 km/h 68 % 0.0 in /  0 mm 0.0 W/m2 CLR
22:58 12.8 °F /  -10.7 °C 7.0 °F /  -13.9 °C 1027.7 in /  34797.9 hPa West 22.5 mph /  36.2 km/h 22.5 mph /  36.2 km/h 68 % 0.0 in /  0 mm 0.0 W/m2 CLR
22:59 12.8 °F /  -10.7 °C 7.0 °F /  -13.9 °C 1027.7 in /  34797.9 hPa WNW 25.9 mph /  41.7 km/h 25.9 mph /  41.7 km/h 68 % 0.0 in /  0 mm 0.0 W/m2 CLR
23:03 12.8 °F /  -10.7 °C 7.0 °F /  -13.9 °C 1027.3 in /  34784.4 hPa WNW 16.7 mph /  26.9 km/h 16.7 mph /  26.9 km/h 68 % 0.0 in /  0 mm 0.0 W/m2 CLR
23:07 12.8 °F /  -10.7 °C 7.0 °F /  -13.9 °C 1027.7 in /  34797.9 hPa NW 17.7 mph /  28.5 km/h 17.7 mph /  28.5 km/h 68 % 0.0 in /  0 mm 0.0 W/m2 CLR
23:08 12.8 °F /  -10.7 °C 7.0 °F /  -13.9 °C 1027.7 in /  34797.9 hPa WNW 16.7 mph /  26.9 km/h 16.7 mph /  26.9 km/h 68 % 0.0 in /  0 mm 0.0 W/m2 CLR
23:13 12.8 °F /  -10.7 °C 7.0 °F /  -13.9 °C 1027.7 in /  34797.9 hPa NW 14.8 mph /  23.8 km/h 14.8 mph /  23.8 km/h 68 % 0.0 in /  0 mm 0.0 W/m2 CLR
23:14 12.8 °F /  -10.7 °C 7.0 °F /  -13.9 °C 1027.7 in /  34797.9 hPa WNW 18.5 mph /  29.8 km/h 18.5 mph /  29.8 km/h 68 % 0.0 in /  0 mm 0.0 W/m2 CLR
23:16 13.3 °F /  -10.4 °C 7.6 °F /  -13.6 °C 1027.7 in /  34797.9 hPa NW 16.7 mph /  26.9 km/h 16.7 mph /  26.9 km/h 68 % 0.0 in /  0 mm 0.0 W/m2 CLR
23:21 13.3 °F /  -10.4 °C 7.6 °F /  -13.6 °C 1027.7 in /  34797.9 hPa NW 20.4 mph /  32.8 km/h 20.4 mph /  32.8 km/h 68 % 0.0 in /  0 mm 0.0 W/m2 CLR
23:23 13.3 °F /  -10.4 °C 7.6 °F /  -13.6 °C 1027.7 in /  34797.9 hPa WNW 18.5 mph /  29.8 km/h 18.5 mph /  29.8 km/h 68 % 0.0 in /  0 mm 0.0 W/m2 CLR
23:26 13.3 °F /  -10.4 °C 7.6 °F /  -13.6 °C 1027.7 in /  34797.9 hPa WNW 14.8 mph /  23.8 km/h 14.8 mph /  23.8 km/h 68 % 0.0 in /  0 mm 0.0 W/m2 CLR
23:30 13.3 °F /  -10.4 °C 7.6 °F /  -13.6 °C 1027.3 in /  34784.4 hPa NW 18.5 mph /  29.8 km/h 18.5 mph /  29.8 km/h 68 % 0.0 in /  0 mm 0.0 W/m2 CLR
23:32 13.3 °F /  -10.4 °C 7.6 °F /  -13.6 °C 1027.7 in /  34797.9 hPa WNW 20.9 mph /  33.6 km/h 20.9 mph /  33.6 km/h 68 % 0.0 in /  0 mm 0.0 W/m2 CLR
23:36 13.3 °F /  -10.4 °C 7.3 °F /  -13.7 °C 1027.7 in /  34797.9 hPa NW 18.5 mph /  29.8 km/h 18.5 mph /  29.8 km/h 67 % 0.0 in /  0 mm 0.0 W/m2 CLR
23:39 13.3 °F /  -10.4 °C 7.3 °F /  -13.7 °C 1027.7 in /  34797.9 hPa WNW 18.5 mph /  29.8 km/h 18.5 mph /  29.8 km/h 67 % 0.0 in /  0 mm 0.0 W/m2 CLR
23:41 13.3 °F /  -10.4 °C 7.3 °F /  -13.7 °C 1027.7 in /  34797.9 hPa NW 16.7 mph /  26.9 km/h 16.7 mph /  26.9 km/h 67 % 0.0 in /  0 mm 0.0 W/m2 CLR
23:46 13.3 °F /  -10.4 °C 7.3 °F /  -13.7 °C 1027.7 in /  34797.9 hPa WNW 14.8 mph /  23.8 km/h 14.8 mph /  23.8 km/h 67 % 0.0 in /  0 mm 0.0 W/m2 CLR
23:51 13.3 °F /  -10.4 °C 7.3 °F /  -13.7 °C 1027.7 in /  34797.9 hPa WNW 14.8 mph /  23.8 km/h 14.8 mph /  23.8 km/h 67 % 0.0 in /  0 mm 0.0 W/m2 CLR
23:57 13.9 °F /  -10.1 °C 8.1 °F /  -13.3 °C 1027.7 in /  34797.9 hPa WNW 16.7 mph /  26.9 km/h 16.7 mph /  26.9 km/h 68 % 0.0 in /  0 mm 0.0 W/m2 CLR
Lo Temps de Massalio
Compliments of Weather Underground - 1.5 mb